<?xml version="1.0" encoding="UTF-8" standalone="no" ?>
<gpx xmlns="http://www.topografix.com/GPX/1/1" xmlns:xsi="http://www.w3.org/2001/XMLSchema-instance" xsi:schemaLocation="http://www.topografix.com/GPX/1/1 http://www.topografix.com/GPX/1/1/gpx.xsd" version="1.1" creator="VisuGPX - https://www.visugpx.com">
  <metadata>
    <name>Arenberg bis</name>
  </metadata>
  <trk>
    <name><![CDATA[Arenberg]]></name>
    <trkseg>
      <trkpt lat="50.50361" lon="3.46454">
        <ele>20.89163</ele>
        <time>2020-10-01T15:20:20.577Z</time>
      </trkpt>
      <trkpt lat="50.50361" lon="3.46454">
        <ele>20.89163</ele>
        <time>2020-10-01T15:20:20.582Z</time>
      </trkpt>
      <trkpt lat="50.5034" lon="3.46438">
        <ele>20.89163</ele>
        <time>2020-10-01T15:20:24.137Z</time>
      </trkpt>
      <trkpt lat="50.50316" lon="3.46422">
        <ele>20.89163</ele>
        <time>2020-10-01T15:20:28.111Z</time>
      </trkpt>
      <trkpt lat="50.50313" lon="3.46411">
        <ele>20.89163</ele>
        <time>2020-10-01T15:20:29.189Z</time>
      </trkpt>
      <trkpt lat="50.50317" lon="3.46374">
        <ele>20.89163</ele>
        <time>2020-10-01T15:20:32.697Z</time>
      </trkpt>
      <trkpt lat="50.50325" lon="3.46304">
        <ele>20.800165</ele>
        <time>2020-10-01T15:20:39.118Z</time>
      </trkpt>
      <trkpt lat="50.50335" lon="3.46236">
        <ele>20.687575</ele>
        <time>2020-10-01T15:20:45.402Z</time>
      </trkpt>
      <trkpt lat="50.50345" lon="3.46155">
        <ele>20.555786</ele>
        <time>2020-10-01T15:20:52.779Z</time>
      </trkpt>
      <trkpt lat="50.50361" lon="3.46074">
        <ele>20.406292</ele>
        <time>2020-10-01T15:21:00.052Z</time>
      </trkpt>
      <trkpt lat="50.5041" lon="3.45851">
        <ele>19.732277</ele>
        <time>2020-10-01T15:21:20.100Z</time>
      </trkpt>
      <trkpt lat="50.50424" lon="3.45772">
        <ele>19.49883</ele>
        <time>2020-10-01T15:21:27.159Z</time>
      </trkpt>
      <trkpt lat="50.50433" lon="3.4572">
        <ele>19.344314</ele>
        <time>2020-10-01T15:21:31.852Z</time>
      </trkpt>
      <trkpt lat="50.50436" lon="3.45642">
        <ele>19.123279</ele>
        <time>2020-10-01T15:21:38.635Z</time>
      </trkpt>
      <trkpt lat="50.50437" lon="3.45631">
        <ele>19.091849</ele>
        <time>2020-10-01T15:21:39.469Z</time>
      </trkpt>
      <trkpt lat="50.5044" lon="3.45588">
        <ele>18.96757</ele>
        <time>2020-10-01T15:21:43.428Z</time>
      </trkpt>
      <trkpt lat="50.50441" lon="3.45573">
        <ele>18.923785</ele>
        <time>2020-10-01T15:21:44.622Z</time>
      </trkpt>
      <trkpt lat="50.50441" lon="3.45568">
        <ele>18.909156</ele>
        <time>2020-10-01T15:21:45.066Z</time>
      </trkpt>
      <trkpt lat="50.50443" lon="3.45552">
        <ele>18.86262</ele>
        <time>2020-10-01T15:21:46.497Z</time>
      </trkpt>
      <trkpt lat="50.50448" lon="3.45508">
        <ele>18.716916</ele>
        <time>2020-10-01T15:21:50.048Z</time>
      </trkpt>
      <trkpt lat="50.50447" lon="3.4549">
        <ele>18.652094</ele>
        <time>2020-10-01T15:21:51.633Z</time>
      </trkpt>
      <trkpt lat="50.50444" lon="3.45482">
        <ele>18.61901</ele>
        <time>2020-10-01T15:21:52.438Z</time>
      </trkpt>
      <trkpt lat="50.50416" lon="3.45464">
        <ele>18.45552</ele>
        <time>2020-10-01T15:21:56.314Z</time>
      </trkpt>
      <trkpt lat="50.50407" lon="3.45459">
        <ele>18.400704</ele>
        <time>2020-10-01T15:21:57.643Z</time>
      </trkpt>
      <trkpt lat="50.50355" lon="3.45425">
        <ele>18.092979</ele>
        <time>2020-10-01T15:22:05.125Z</time>
      </trkpt>
      <trkpt lat="50.50341" lon="3.45413">
        <ele>18.005079</ele>
        <time>2020-10-01T15:22:07.302Z</time>
      </trkpt>
      <trkpt lat="50.5031" lon="3.45386">
        <ele>17.824962</ele>
        <time>2020-10-01T15:22:11.962Z</time>
      </trkpt>
      <trkpt lat="50.50229" lon="3.45322">
        <ele>17.578575</ele>
        <time>2020-10-01T15:22:23.405Z</time>
      </trkpt>
      <trkpt lat="50.50193" lon="3.45294">
        <ele>17.471649</ele>
        <time>2020-10-01T15:22:29.416Z</time>
      </trkpt>
      <trkpt lat="50.50142" lon="3.45258">
        <ele>17.356878</ele>
        <time>2020-10-01T15:22:38.698Z</time>
      </trkpt>
      <trkpt lat="50.5013" lon="3.45249">
        <ele>17.362254</ele>
        <time>2020-10-01T15:22:40.715Z</time>
      </trkpt>
      <trkpt lat="50.50092" lon="3.45227">
        <ele>17.378573</ele>
        <time>2020-10-01T15:22:47.223Z</time>
      </trkpt>
      <trkpt lat="50.50084" lon="3.45223">
        <ele>17.382018</ele>
        <time>2020-10-01T15:22:48.543Z</time>
      </trkpt>
      <trkpt lat="50.50052" lon="3.45203">
        <ele>17.396082</ele>
        <time>2020-10-01T15:22:53.535Z</time>
      </trkpt>
      <trkpt lat="50.50051" lon="3.45202">
        <ele>17.396757</ele>
        <time>2020-10-01T15:22:53.783Z</time>
      </trkpt>
      <trkpt lat="50.50044" lon="3.45199">
        <ele>17.399613</ele>
        <time>2020-10-01T15:22:54.807Z</time>
      </trkpt>
      <trkpt lat="50.50005" lon="3.45189">
        <ele>17.415719</ele>
        <time>2020-10-01T15:23:00.420Z</time>
      </trkpt>
      <trkpt lat="50.49999" lon="3.45188">
        <ele>17.418307</ele>
        <time>2020-10-01T15:23:01.288Z</time>
      </trkpt>
      <trkpt lat="50.49974" lon="3.45177">
        <ele>17.367154</ele>
        <time>2020-10-01T15:23:05.078Z</time>
      </trkpt>
      <trkpt lat="50.49958" lon="3.45159">
        <ele>17.224794</ele>
        <time>2020-10-01T15:23:07.890Z</time>
      </trkpt>
      <trkpt lat="50.49943" lon="3.45125">
        <ele>17.039519</ele>
        <time>2020-10-01T15:23:11.542Z</time>
      </trkpt>
      <trkpt lat="50.49935" lon="3.45106">
        <ele>16.933355</ele>
        <time>2020-10-01T15:23:13.520Z</time>
      </trkpt>
      <trkpt lat="50.49874" lon="3.44964">
        <ele>16.160465</ele>
        <time>2020-10-01T15:23:26.755Z</time>
      </trkpt>
      <trkpt lat="50.49867" lon="3.44946">
        <ele>16.109407</ele>
        <time>2020-10-01T15:23:28.357Z</time>
      </trkpt>
      <trkpt lat="50.49864" lon="3.44939">
        <ele>16.092393</ele>
        <time>2020-10-01T15:23:28.998Z</time>
      </trkpt>
      <trkpt lat="50.49853" lon="3.44914">
        <ele>16.030544</ele>
        <time>2020-10-01T15:23:31.419Z</time>
      </trkpt>
      <trkpt lat="50.49851" lon="3.44909">
        <ele>16.018828</ele>
        <time>2020-10-01T15:23:31.893Z</time>
      </trkpt>
      <trkpt lat="50.49844" lon="3.44889">
        <ele>15.97062</ele>
        <time>2020-10-01T15:23:33.786Z</time>
      </trkpt>
      <trkpt lat="50.49799" lon="3.44762">
        <ele>15.675603</ele>
        <time>2020-10-01T15:23:46.815Z</time>
      </trkpt>
      <trkpt lat="50.49798" lon="3.44759">
        <ele>15.669066</ele>
        <time>2020-10-01T15:23:47.060Z</time>
      </trkpt>
      <trkpt lat="50.49776" lon="3.4469">
        <ele>15.725062</ele>
        <time>2020-10-01T15:23:55.055Z</time>
      </trkpt>
      <trkpt lat="50.49754" lon="3.44626">
        <ele>16.109253</ele>
        <time>2020-10-01T15:24:02.794Z</time>
      </trkpt>
      <trkpt lat="50.49735" lon="3.44569">
        <ele>16.449994</ele>
        <time>2020-10-01T15:24:10.472Z</time>
      </trkpt>
      <trkpt lat="50.49687" lon="3.44433">
        <ele>17.226622</ele>
        <time>2020-10-01T15:24:30.072Z</time>
      </trkpt>
      <trkpt lat="50.49674" lon="3.44405">
        <ele>17.368525</ele>
        <time>2020-10-01T15:24:34.083Z</time>
      </trkpt>
      <trkpt lat="50.49672" lon="3.44401">
        <ele>17.389138</ele>
        <time>2020-10-01T15:24:34.968Z</time>
      </trkpt>
      <trkpt lat="50.49669" lon="3.44396">
        <ele>17.418189</ele>
        <time>2020-10-01T15:24:35.781Z</time>
      </trkpt>
      <trkpt lat="50.49663" lon="3.44393">
        <ele>17.456756</ele>
        <time>2020-10-01T15:24:36.831Z</time>
      </trkpt>
      <trkpt lat="50.49648" lon="3.44404">
        <ele>17.561966</ele>
        <time>2020-10-01T15:24:39.818Z</time>
      </trkpt>
      <trkpt lat="50.4959" lon="3.44475">
        <ele>18.037977</ele>
        <time>2020-10-01T15:24:52.428Z</time>
      </trkpt>
      <trkpt lat="50.49562" lon="3.44503">
        <ele>18.21734</ele>
        <time>2020-10-01T15:24:57.489Z</time>
      </trkpt>
      <trkpt lat="50.49544" lon="3.44521">
        <ele>18.182372</ele>
        <time>2020-10-01T15:25:00.565Z</time>
      </trkpt>
      <trkpt lat="50.49491" lon="3.44561">
        <ele>18.086845</ele>
        <time>2020-10-01T15:25:08.916Z</time>
      </trkpt>
      <trkpt lat="50.49477" lon="3.44573">
        <ele>18.060889</ele>
        <time>2020-10-01T15:25:10.923Z</time>
      </trkpt>
      <trkpt lat="50.49426" lon="3.44654">
        <ele>17.942763</ele>
        <time>2020-10-01T15:25:20.865Z</time>
      </trkpt>
      <trkpt lat="50.4942" lon="3.44663">
        <ele>17.932486</ele>
        <time>2020-10-01T15:25:22.349Z</time>
      </trkpt>
      <trkpt lat="50.49368" lon="3.44744">
        <ele>18.064594</ele>
        <time>2020-10-01T15:25:33.218Z</time>
      </trkpt>
      <trkpt lat="50.49361" lon="3.44739">
        <ele>18.078258</ele>
        <time>2020-10-01T15:25:34.400Z</time>
      </trkpt>
      <trkpt lat="50.4934" lon="3.44731">
        <ele>18.116667</ele>
        <time>2020-10-01T15:25:37.786Z</time>
      </trkpt>
      <trkpt lat="50.49336" lon="3.44729">
        <ele>18.123818</ele>
        <time>2020-10-01T15:25:38.590Z</time>
      </trkpt>
      <trkpt lat="50.49301" lon="3.44709">
        <ele>18.19133</ele>
        <time>2020-10-01T15:25:44.870Z</time>
      </trkpt>
      <trkpt lat="50.49286" lon="3.44688">
        <ele>18.227609</ele>
        <time>2020-10-01T15:25:48.133Z</time>
      </trkpt>
      <trkpt lat="50.49254" lon="3.44618">
        <ele>18.324999</ele>
        <time>2020-10-01T15:25:56.932Z</time>
      </trkpt>
      <trkpt lat="50.49237" lon="3.44565">
        <ele>18.392497</ele>
        <time>2020-10-01T15:26:02.786Z</time>
      </trkpt>
      <trkpt lat="50.49227" lon="3.44464">
        <ele>18.507858</ele>
        <time>2020-10-01T15:26:12.640Z</time>
      </trkpt>
      <trkpt lat="50.49219" lon="3.44434">
        <ele>18.545605</ele>
        <time>2020-10-01T15:26:15.885Z</time>
      </trkpt>
      <trkpt lat="50.49167" lon="3.44324">
        <ele>18.904937</ele>
        <time>2020-10-01T15:26:29.382Z</time>
      </trkpt>
      <trkpt lat="50.49138" lon="3.44236">
        <ele>19.196171</ele>
        <time>2020-10-01T15:26:39.826Z</time>
      </trkpt>
      <trkpt lat="50.49109" lon="3.44183">
        <ele>19.404251</ele>
        <time>2020-10-01T15:26:47.891Z</time>
      </trkpt>
      <trkpt lat="50.49043" lon="3.44079">
        <ele>20.314468</ele>
        <time>2020-10-01T15:27:05.651Z</time>
      </trkpt>
      <trkpt lat="50.49034" lon="3.44057">
        <ele>20.477598</ele>
        <time>2020-10-01T15:27:08.884Z</time>
      </trkpt>
      <trkpt lat="50.48998" lon="3.43966">
        <ele>21.143823</ele>
        <time>2020-10-01T15:27:21.836Z</time>
      </trkpt>
      <trkpt lat="50.48981" lon="3.43937">
        <ele>21.250076</ele>
        <time>2020-10-01T15:27:26.432Z</time>
      </trkpt>
      <trkpt lat="50.48953" lon="3.43902">
        <ele>21.379406</ele>
        <time>2020-10-01T15:27:33.021Z</time>
      </trkpt>
      <trkpt lat="50.48944" lon="3.43891">
        <ele>21.422375</ele>
        <time>2020-10-01T15:27:35.095Z</time>
      </trkpt>
      <trkpt lat="50.48918" lon="3.43854">
        <ele>21.545847</ele>
        <time>2020-10-01T15:27:40.742Z</time>
      </trkpt>
      <trkpt lat="50.48907" lon="3.43837">
        <ele>21.603814</ele>
        <time>2020-10-01T15:27:43.225Z</time>
      </trkpt>
      <trkpt lat="50.48882" lon="3.43799">
        <ele>21.729113</ele>
        <time>2020-10-01T15:27:48.303Z</time>
      </trkpt>
      <trkpt lat="50.48863" lon="3.43769">
        <ele>21.807265</ele>
        <time>2020-10-01T15:27:52.029Z</time>
      </trkpt>
      <trkpt lat="50.48851" lon="3.4374">
        <ele>21.708712</ele>
        <time>2020-10-01T15:27:55.142Z</time>
      </trkpt>
      <trkpt lat="50.488" lon="3.4362">
        <ele>21.297641</ele>
        <time>2020-10-01T15:28:07.321Z</time>
      </trkpt>
      <trkpt lat="50.48793" lon="3.43602">
        <ele>21.237638</ele>
        <time>2020-10-01T15:28:09.142Z</time>
      </trkpt>
      <trkpt lat="50.48786" lon="3.43584">
        <ele>21.177159</ele>
        <time>2020-10-01T15:28:10.835Z</time>
      </trkpt>
      <trkpt lat="50.48774" lon="3.4355">
        <ele>21.066132</ele>
        <time>2020-10-01T15:28:14.101Z</time>
      </trkpt>
      <trkpt lat="50.48772" lon="3.4353">
        <ele>21.007247</ele>
        <time>2020-10-01T15:28:15.729Z</time>
      </trkpt>
      <trkpt lat="50.48777" lon="3.43508">
        <ele>20.938856</ele>
        <time>2020-10-01T15:28:17.618Z</time>
      </trkpt>
      <trkpt lat="50.48831" lon="3.43417">
        <ele>20.567778</ele>
        <time>2020-10-01T15:28:28.139Z</time>
      </trkpt>
      <trkpt lat="50.48835" lon="3.43392">
        <ele>20.487795</ele>
        <time>2020-10-01T15:28:30.502Z</time>
      </trkpt>
      <trkpt lat="50.48812" lon="3.43386">
        <ele>20.375176</ele>
        <time>2020-10-01T15:28:33.818Z</time>
      </trkpt>
      <trkpt lat="50.48714" lon="3.43358">
        <ele>19.879934</ele>
        <time>2020-10-01T15:28:47.146Z</time>
      </trkpt>
      <trkpt lat="50.48697" lon="3.4335">
        <ele>19.787009</ele>
        <time>2020-10-01T15:28:49.522Z</time>
      </trkpt>
      <trkpt lat="50.48614" lon="3.43307">
        <ele>19.335812</ele>
        <time>2020-10-01T15:29:00.904Z</time>
      </trkpt>
      <trkpt lat="50.48566" lon="3.43274">
        <ele>19.123772</ele>
        <time>2020-10-01T15:29:07.714Z</time>
      </trkpt>
      <trkpt lat="50.48516" lon="3.43213">
        <ele>18.91412</ele>
        <time>2020-10-01T15:29:16.094Z</time>
      </trkpt>
      <trkpt lat="50.48515" lon="3.43211">
        <ele>18.906403</ele>
        <time>2020-10-01T15:29:16.340Z</time>
      </trkpt>
      <trkpt lat="50.48503" lon="3.4319">
        <ele>18.846941</ele>
        <time>2020-10-01T15:29:19.025Z</time>
      </trkpt>
      <trkpt lat="50.48468" lon="3.43113">
        <ele>18.646269</ele>
        <time>2020-10-01T15:29:27.576Z</time>
      </trkpt>
      <trkpt lat="50.48438" lon="3.43022">
        <ele>18.592197</ele>
        <time>2020-10-01T15:29:37.149Z</time>
      </trkpt>
      <trkpt lat="50.48432" lon="3.43001">
        <ele>18.582546</ele>
        <time>2020-10-01T15:29:39.466Z</time>
      </trkpt>
      <trkpt lat="50.48426" lon="3.42971">
        <ele>18.569741</ele>
        <time>2020-10-01T15:29:42.427Z</time>
      </trkpt>
      <trkpt lat="50.48423" lon="3.42957">
        <ele>18.563689</ele>
        <time>2020-10-01T15:29:43.758Z</time>
      </trkpt>
      <trkpt lat="50.48404" lon="3.42822">
        <ele>18.520692</ele>
        <time>2020-10-01T15:29:56.744Z</time>
      </trkpt>
      <trkpt lat="50.48397" lon="3.4277">
        <ele>18.535076</ele>
        <time>2020-10-01T15:30:01.614Z</time>
      </trkpt>
      <trkpt lat="50.48391" lon="3.42733">
        <ele>18.545603</ele>
        <time>2020-10-01T15:30:05.025Z</time>
      </trkpt>
      <trkpt lat="50.48379" lon="3.42655">
        <ele>18.567499</ele>
        <time>2020-10-01T15:30:12.551Z</time>
      </trkpt>
      <trkpt lat="50.48364" lon="3.42603">
        <ele>18.583062</ele>
        <time>2020-10-01T15:30:18.246Z</time>
      </trkpt>
      <trkpt lat="50.48331" lon="3.42556">
        <ele>18.700974</ele>
        <time>2020-10-01T15:30:25.261Z</time>
      </trkpt>
      <trkpt lat="50.48298" lon="3.42533">
        <ele>18.877742</ele>
        <time>2020-10-01T15:30:31.288Z</time>
      </trkpt>
      <trkpt lat="50.48265" lon="3.42517">
        <ele>19.048486</ele>
        <time>2020-10-01T15:30:37.235Z</time>
      </trkpt>
      <trkpt lat="50.48243" lon="3.4251">
        <ele>19.157057</ele>
        <time>2020-10-01T15:30:41.084Z</time>
      </trkpt>
      <trkpt lat="50.48275" lon="3.42268">
        <ele>19.918172</ele>
        <time>2020-10-01T15:31:08.275Z</time>
      </trkpt>
      <trkpt lat="50.48282" lon="3.42212">
        <ele>20.090893</ele>
        <time>2020-10-01T15:31:14.150Z</time>
      </trkpt>
      <trkpt lat="50.48281" lon="3.42171">
        <ele>20.218944</ele>
        <time>2020-10-01T15:31:18.457Z</time>
      </trkpt>
      <trkpt lat="50.4827" lon="3.42108">
        <ele>20.362226</ele>
        <time>2020-10-01T15:31:25.187Z</time>
      </trkpt>
      <trkpt lat="50.48267" lon="3.42088">
        <ele>20.384091</ele>
        <time>2020-10-01T15:31:27.319Z</time>
      </trkpt>
      <trkpt lat="50.48265" lon="3.42058">
        <ele>20.414809</ele>
        <time>2020-10-01T15:31:30.335Z</time>
      </trkpt>
      <trkpt lat="50.48277" lon="3.41973">
        <ele>20.505076</ele>
        <time>2020-10-01T15:31:39.113Z</time>
      </trkpt>
      <trkpt lat="50.48335" lon="3.41557">
        <ele>20.678918</ele>
        <time>2020-10-01T15:32:19.766Z</time>
      </trkpt>
      <trkpt lat="50.48361" lon="3.41323">
        <ele>20.592841</ele>
        <time>2020-10-01T15:32:42.206Z</time>
      </trkpt>
      <trkpt lat="50.48367" lon="3.4127">
        <ele>20.451197</ele>
        <time>2020-10-01T15:32:46.919Z</time>
      </trkpt>
      <trkpt lat="50.48315" lon="3.41233">
        <ele>20.097763</ele>
        <time>2020-10-01T15:32:54.641Z</time>
      </trkpt>
      <trkpt lat="50.48216" lon="3.41154">
        <ele>19.420721</ele>
        <time>2020-10-01T15:33:08.566Z</time>
      </trkpt>
      <trkpt lat="50.48168" lon="3.41138">
        <ele>19.102646</ele>
        <time>2020-10-01T15:33:14.587Z</time>
      </trkpt>
      <trkpt lat="50.48073" lon="3.41064">
        <ele>18.407182</ele>
        <time>2020-10-01T15:33:28.324Z</time>
      </trkpt>
      <trkpt lat="50.47954" lon="3.40965">
        <ele>18.009139</ele>
        <time>2020-10-01T15:33:47.175Z</time>
      </trkpt>
      <trkpt lat="50.47935" lon="3.40945">
        <ele>17.951298</ele>
        <time>2020-10-01T15:33:50.398Z</time>
      </trkpt>
      <trkpt lat="50.47904" lon="3.40903">
        <ele>17.854362</ele>
        <time>2020-10-01T15:33:56.238Z</time>
      </trkpt>
      <trkpt lat="50.47888" lon="3.40869">
        <ele>17.820421</ele>
        <time>2020-10-01T15:34:00.170Z</time>
      </trkpt>
      <trkpt lat="50.47871" lon="3.40816">
        <ele>17.774152</ele>
        <time>2020-10-01T15:34:05.522Z</time>
      </trkpt>
      <trkpt lat="50.47867" lon="3.408">
        <ele>17.760564</ele>
        <time>2020-10-01T15:34:07.116Z</time>
      </trkpt>
      <trkpt lat="50.47856" lon="3.40762">
        <ele>17.72768</ele>
        <time>2020-10-01T15:34:10.871Z</time>
      </trkpt>
      <trkpt lat="50.47765" lon="3.40417">
        <ele>17.564315</ele>
        <time>2020-10-01T15:34:45.493Z</time>
      </trkpt>
      <trkpt lat="50.47744" lon="3.40344">
        <ele>17.548502</ele>
        <time>2020-10-01T15:34:53.282Z</time>
      </trkpt>
      <trkpt lat="50.47733" lon="3.40307">
        <ele>17.541937</ele>
        <time>2020-10-01T15:34:57.164Z</time>
      </trkpt>
      <trkpt lat="50.47729" lon="3.40294">
        <ele>17.539722</ele>
        <time>2020-10-01T15:34:58.535Z</time>
      </trkpt>
      <trkpt lat="50.47707" lon="3.40255">
        <ele>17.531278</ele>
        <time>2020-10-01T15:35:03.534Z</time>
      </trkpt>
      <trkpt lat="50.47702" lon="3.40246">
        <ele>17.529287</ele>
        <time>2020-10-01T15:35:04.758Z</time>
      </trkpt>
      <trkpt lat="50.47704" lon="3.40241">
        <ele>17.528248</ele>
        <time>2020-10-01T15:35:05.314Z</time>
      </trkpt>
      <trkpt lat="50.47732" lon="3.40193">
        <ele>17.517905</ele>
        <time>2020-10-01T15:35:11.373Z</time>
      </trkpt>
      <trkpt lat="50.4783" lon="3.40085">
        <ele>17.274111</ele>
        <time>2020-10-01T15:35:28.139Z</time>
      </trkpt>
      <trkpt lat="50.47874" lon="3.40052">
        <ele>17.154622</ele>
        <time>2020-10-01T15:35:34.823Z</time>
      </trkpt>
      <trkpt lat="50.48006" lon="3.40015">
        <ele>17.145309</ele>
        <time>2020-10-01T15:35:53.868Z</time>
      </trkpt>
      <trkpt lat="50.48026" lon="3.40021">
        <ele>17.159761</ele>
        <time>2020-10-01T15:35:56.967Z</time>
      </trkpt>
      <trkpt lat="50.48066" lon="3.40055">
        <ele>17.192683</ele>
        <time>2020-10-01T15:36:04.736Z</time>
      </trkpt>
      <trkpt lat="50.481" lon="3.40053">
        <ele>17.272901</ele>
        <time>2020-10-01T15:36:10.377Z</time>
      </trkpt>
      <trkpt lat="50.48107" lon="3.4005">
        <ele>17.30016</ele>
        <time>2020-10-01T15:36:11.529Z</time>
      </trkpt>
      <trkpt lat="50.48117" lon="3.40045">
        <ele>17.339782</ele>
        <time>2020-10-01T15:36:13.375Z</time>
      </trkpt>
      <trkpt lat="50.48129" lon="3.40035">
        <ele>17.387145</ele>
        <time>2020-10-01T15:36:15.606Z</time>
      </trkpt>
      <trkpt lat="50.48129" lon="3.40035">
        <ele>17.387145</ele>
        <time>2020-10-01T15:36:15.628Z</time>
      </trkpt>
      <trkpt lat="50.48135" lon="3.40031">
        <ele>17.408922</ele>
        <time>2020-10-01T15:36:16.573Z</time>
      </trkpt>
      <trkpt lat="50.48161" lon="3.39995">
        <ele>17.533316</ele>
        <time>2020-10-01T15:36:22.327Z</time>
      </trkpt>
      <trkpt lat="50.48188" lon="3.39968">
        <ele>17.648807</ele>
        <time>2020-10-01T15:36:27.694Z</time>
      </trkpt>
      <trkpt lat="50.48218" lon="3.39938">
        <ele>17.776904</ele>
        <time>2020-10-01T15:36:33.539Z</time>
      </trkpt>
      <trkpt lat="50.48229" lon="3.39927">
        <ele>17.820735</ele>
        <time>2020-10-01T15:36:35.296Z</time>
      </trkpt>
      <trkpt lat="50.48299" lon="3.39871">
        <ele>17.703654</ele>
        <time>2020-10-01T15:36:46.842Z</time>
      </trkpt>
      <trkpt lat="50.48346" lon="3.39843">
        <ele>17.603008</ele>
        <time>2020-10-01T15:36:53.775Z</time>
      </trkpt>
      <trkpt lat="50.48358" lon="3.3984">
        <ele>17.578182</ele>
        <time>2020-10-01T15:36:55.367Z</time>
      </trkpt>
      <trkpt lat="50.48355" lon="3.39827">
        <ele>17.560581</ele>
        <time>2020-10-01T15:36:56.946Z</time>
      </trkpt>
      <trkpt lat="50.48343" lon="3.39766">
        <ele>17.486731</ele>
        <time>2020-10-01T15:37:04.689Z</time>
      </trkpt>
      <trkpt lat="50.4833" lon="3.39725">
        <ele>17.47458</ele>
        <time>2020-10-01T15:37:10.500Z</time>
      </trkpt>
      <trkpt lat="50.48299" lon="3.39629">
        <ele>17.446685</ele>
        <time>2020-10-01T15:37:24.099Z</time>
      </trkpt>
      <trkpt lat="50.48272" lon="3.39547">
        <ele>17.422541</ele>
        <time>2020-10-01T15:37:36.164Z</time>
      </trkpt>
      <trkpt lat="50.4827" lon="3.39544">
        <ele>17.421189</ele>
        <time>2020-10-01T15:37:36.888Z</time>
      </trkpt>
      <trkpt lat="50.4826" lon="3.39528">
        <ele>17.415353</ele>
        <time>2020-10-01T15:37:39.900Z</time>
      </trkpt>
      <trkpt lat="50.48162" lon="3.39398">
        <ele>17.493805</ele>
        <time>2020-10-01T15:38:06.742Z</time>
      </trkpt>
      <trkpt lat="50.48141" lon="3.39355">
        <ele>17.515719</ele>
        <time>2020-10-01T15:38:13.795Z</time>
      </trkpt>
      <trkpt lat="50.48132" lon="3.3934">
        <ele>17.523789</ele>
        <time>2020-10-01T15:38:16.299Z</time>
      </trkpt>
      <trkpt lat="50.48115" lon="3.39328">
        <ele>17.507953</ele>
        <time>2020-10-01T15:38:20.069Z</time>
      </trkpt>
      <trkpt lat="50.48107" lon="3.3932">
        <ele>17.494192</ele>
        <time>2020-10-01T15:38:21.751Z</time>
      </trkpt>
      <trkpt lat="50.48091" lon="3.39168">
        <ele>17.343956</ele>
        <time>2020-10-01T15:38:40.884Z</time>
      </trkpt>
      <trkpt lat="50.48056" lon="3.39118">
        <ele>17.271025</ele>
        <time>2020-10-01T15:38:50.120Z</time>
      </trkpt>
      <trkpt lat="50.48049" lon="3.39109">
        <ele>17.257688</ele>
        <time>2020-10-01T15:38:51.658Z</time>
      </trkpt>
      <trkpt lat="50.48047" lon="3.39107">
        <ele>17.254004</ele>
        <time>2020-10-01T15:38:52.359Z</time>
      </trkpt>
      <trkpt lat="50.47949" lon="3.38958">
        <ele>17.33463</ele>
        <time>2020-10-01T15:39:20.435Z</time>
      </trkpt>
      <trkpt lat="50.47932" lon="3.38926">
        <ele>17.350796</ele>
        <time>2020-10-01T15:39:26.016Z</time>
      </trkpt>
      <trkpt lat="50.47935" lon="3.38862">
        <ele>17.350903</ele>
        <time>2020-10-01T15:39:34.339Z</time>
      </trkpt>
      <trkpt lat="50.47948" lon="3.3879">
        <ele>17.327317</ele>
        <time>2020-10-01T15:39:44.007Z</time>
      </trkpt>
      <trkpt lat="50.47886" lon="3.38706">
        <ele>17.286799</ele>
        <time>2020-10-01T15:40:00.257Z</time>
      </trkpt>
      <trkpt lat="50.47818" lon="3.38613">
        <ele>17.306903</ele>
        <time>2020-10-01T15:40:18.136Z</time>
      </trkpt>
      <trkpt lat="50.47801" lon="3.38601">
        <ele>17.316951</ele>
        <time>2020-10-01T15:40:21.810Z</time>
      </trkpt>
      <trkpt lat="50.47626" lon="3.38618">
        <ele>17.611786</ele>
        <time>2020-10-01T15:40:58.687Z</time>
      </trkpt>
      <trkpt lat="50.47584" lon="3.38612">
        <ele>17.746346</ele>
        <time>2020-10-01T15:41:07.896Z</time>
      </trkpt>
      <trkpt lat="50.47536" lon="3.38594">
        <ele>17.902621</ele>
        <time>2020-10-01T15:41:18.659Z</time>
      </trkpt>
      <trkpt lat="50.47519" lon="3.38585">
        <ele>17.959529</ele>
        <time>2020-10-01T15:41:22.509Z</time>
      </trkpt>
      <trkpt lat="50.4749" lon="3.38567">
        <ele>18.061789</ele>
        <time>2020-10-01T15:41:29.301Z</time>
      </trkpt>
      <trkpt lat="50.47484" lon="3.38564">
        <ele>18.083996</ele>
        <time>2020-10-01T15:41:30.733Z</time>
      </trkpt>
      <trkpt lat="50.47452" lon="3.38544">
        <ele>18.198912</ele>
        <time>2020-10-01T15:41:38.261Z</time>
      </trkpt>
      <trkpt lat="50.47379" lon="3.38499">
        <ele>18.46097</ele>
        <time>2020-10-01T15:41:55.057Z</time>
      </trkpt>
      <trkpt lat="50.4736" lon="3.38488">
        <ele>18.52931</ele>
        <time>2020-10-01T15:41:59.479Z</time>
      </trkpt>
      <trkpt lat="50.47358" lon="3.38493">
        <ele>18.538131</ele>
        <time>2020-10-01T15:42:00.241Z</time>
      </trkpt>
      <trkpt lat="50.47357" lon="3.38496">
        <ele>18.5376</ele>
        <time>2020-10-01T15:42:00.571Z</time>
      </trkpt>
      <trkpt lat="50.47339" lon="3.38482">
        <ele>18.530656</ele>
        <time>2020-10-01T15:42:03.828Z</time>
      </trkpt>
      <trkpt lat="50.4728" lon="3.38446">
        <ele>18.509437</ele>
        <time>2020-10-01T15:42:13.485Z</time>
      </trkpt>
      <trkpt lat="50.4717" lon="3.38321">
        <ele>18.323755</ele>
        <time>2020-10-01T15:42:32.691Z</time>
      </trkpt>
      <trkpt lat="50.47123" lon="3.38255">
        <ele>18.095886</ele>
        <time>2020-10-01T15:42:41.190Z</time>
      </trkpt>
      <trkpt lat="50.47089" lon="3.38194">
        <ele>17.91134</ele>
        <time>2020-10-01T15:42:48.097Z</time>
      </trkpt>
      <trkpt lat="50.47058" lon="3.38139">
        <ele>17.749279</ele>
        <time>2020-10-01T15:42:54.431Z</time>
      </trkpt>
      <trkpt lat="50.4705" lon="3.38112">
        <ele>17.68809</ele>
        <time>2020-10-01T15:42:56.987Z</time>
      </trkpt>
      <trkpt lat="50.47001" lon="3.37859">
        <ele>17.198945</ele>
        <time>2020-10-01T15:43:20.126Z</time>
      </trkpt>
      <trkpt lat="50.46987" lon="3.3782">
        <ele>17.161212</ele>
        <time>2020-10-01T15:43:24.252Z</time>
      </trkpt>
      <trkpt lat="50.46955" lon="3.37759">
        <ele>17.094057</ele>
        <time>2020-10-01T15:43:31.693Z</time>
      </trkpt>
      <trkpt lat="50.46944" lon="3.37741">
        <ele>17.073565</ele>
        <time>2020-10-01T15:43:33.919Z</time>
      </trkpt>
      <trkpt lat="50.46915" lon="3.37692">
        <ele>17.017224</ele>
        <time>2020-10-01T15:43:40.208Z</time>
      </trkpt>
      <trkpt lat="50.46895" lon="3.37661">
        <ele>16.995712</ele>
        <time>2020-10-01T15:43:44.305Z</time>
      </trkpt>
      <trkpt lat="50.46787" lon="3.37489">
        <ele>16.934462</ele>
        <time>2020-10-01T15:44:07.150Z</time>
      </trkpt>
      <trkpt lat="50.46744" lon="3.37394">
        <ele>16.877319</ele>
        <time>2020-10-01T15:44:17.656Z</time>
      </trkpt>
      <trkpt lat="50.46719" lon="3.37323">
        <ele>16.834932</ele>
        <time>2020-10-01T15:44:25.026Z</time>
      </trkpt>
      <trkpt lat="50.46696" lon="3.37251">
        <ele>16.793086</ele>
        <time>2020-10-01T15:44:32.433Z</time>
      </trkpt>
      <trkpt lat="50.46682" lon="3.37206">
        <ele>16.843179</ele>
        <time>2020-10-01T15:44:37.243Z</time>
      </trkpt>
      <trkpt lat="50.4657" lon="3.36849">
        <ele>17.785083</ele>
        <time>2020-10-01T15:45:19.000Z</time>
      </trkpt>
      <trkpt lat="50.46557" lon="3.36818">
        <ele>17.89799</ele>
        <time>2020-10-01T15:45:23.144Z</time>
      </trkpt>
      <trkpt lat="50.46488" lon="3.36738">
        <ele>18.268682</ele>
        <time>2020-10-01T15:45:37.531Z</time>
      </trkpt>
      <trkpt lat="50.46467" lon="3.36728">
        <ele>18.332316</ele>
        <time>2020-10-01T15:45:41.314Z</time>
      </trkpt>
      <trkpt lat="50.46452" lon="3.36722">
        <ele>18.376762</ele>
        <time>2020-10-01T15:45:43.727Z</time>
      </trkpt>
      <trkpt lat="50.46439" lon="3.36709">
        <ele>18.421157</ele>
        <time>2020-10-01T15:45:46.339Z</time>
      </trkpt>
      <trkpt lat="50.46358" lon="3.36511">
        <ele>18.647118</ele>
        <time>2020-10-01T15:46:09.513Z</time>
      </trkpt>
      <trkpt lat="50.46321" lon="3.36449">
        <ele>18.557289</ele>
        <time>2020-10-01T15:46:17.159Z</time>
      </trkpt>
      <trkpt lat="50.4632" lon="3.36447">
        <ele>18.555304</ele>
        <time>2020-10-01T15:46:17.324Z</time>
      </trkpt>
      <trkpt lat="50.46291" lon="3.36394">
        <ele>18.481557</ele>
        <time>2020-10-01T15:46:23.487Z</time>
      </trkpt>
      <trkpt lat="50.46283" lon="3.36381">
        <ele>18.462356</ele>
        <time>2020-10-01T15:46:25.088Z</time>
      </trkpt>
      <trkpt lat="50.46268" lon="3.36356">
        <ele>18.426207</ele>
        <time>2020-10-01T15:46:27.970Z</time>
      </trkpt>
      <trkpt lat="50.46193" lon="3.3626">
        <ele>18.169816</ele>
        <time>2020-10-01T15:46:41.166Z</time>
      </trkpt>
      <trkpt lat="50.46169" lon="3.36231">
        <ele>18.088442</ele>
        <time>2020-10-01T15:46:45.366Z</time>
      </trkpt>
      <trkpt lat="50.46156" lon="3.36216">
        <ele>18.047233</ele>
        <time>2020-10-01T15:46:47.445Z</time>
      </trkpt>
      <trkpt lat="50.46104" lon="3.36155">
        <ele>17.939554</ele>
        <time>2020-10-01T15:46:57.097Z</time>
      </trkpt>
      <trkpt lat="50.46014" lon="3.36031">
        <ele>17.913773</ele>
        <time>2020-10-01T15:47:15.260Z</time>
      </trkpt>
      <trkpt lat="50.4599" lon="3.36">
        <ele>17.90721</ele>
        <time>2020-10-01T15:47:19.710Z</time>
      </trkpt>
      <trkpt lat="50.45982" lon="3.35989">
        <ele>17.889223</ele>
        <time>2020-10-01T15:47:21.306Z</time>
      </trkpt>
      <trkpt lat="50.4593" lon="3.35917">
        <ele>17.747668</ele>
        <time>2020-10-01T15:47:31.207Z</time>
      </trkpt>
      <trkpt lat="50.45926" lon="3.35913">
        <ele>17.737959</ele>
        <time>2020-10-01T15:47:31.861Z</time>
      </trkpt>
      <trkpt lat="50.45913" lon="3.35885">
        <ele>17.692319</ele>
        <time>2020-10-01T15:47:35.002Z</time>
      </trkpt>
      <trkpt lat="50.45875" lon="3.3579">
        <ele>17.547461</ele>
        <time>2020-10-01T15:47:44.769Z</time>
      </trkpt>
      <trkpt lat="50.45867" lon="3.3575">
        <ele>17.544071</ele>
        <time>2020-10-01T15:47:48.444Z</time>
      </trkpt>
      <trkpt lat="50.45866" lon="3.35716">
        <ele>17.548159</ele>
        <time>2020-10-01T15:47:51.470Z</time>
      </trkpt>
      <trkpt lat="50.4588" lon="3.35603">
        <ele>17.562138</ele>
        <time>2020-10-01T15:48:02.316Z</time>
      </trkpt>
      <trkpt lat="50.45877" lon="3.35565">
        <ele>17.566705</ele>
        <time>2020-10-01T15:48:06.084Z</time>
      </trkpt>
      <trkpt lat="50.4578" lon="3.35273">
        <ele>18.177174</ele>
        <time>2020-10-01T15:48:40.234Z</time>
      </trkpt>
      <trkpt lat="50.45722" lon="3.35074">
        <ele>18.483711</ele>
        <time>2020-10-01T15:49:02.471Z</time>
      </trkpt>
      <trkpt lat="50.45681" lon="3.34971">
        <ele>18.60459</ele>
        <time>2020-10-01T15:49:14.209Z</time>
      </trkpt>
      <trkpt lat="50.4567" lon="3.34927">
        <ele>18.623274</ele>
        <time>2020-10-01T15:49:18.772Z</time>
      </trkpt>
      <trkpt lat="50.45667" lon="3.34888">
        <ele>18.638981</ele>
        <time>2020-10-01T15:49:22.518Z</time>
      </trkpt>
      <trkpt lat="50.45663" lon="3.34834">
        <ele>18.660505</ele>
        <time>2020-10-01T15:49:27.740Z</time>
      </trkpt>
      <trkpt lat="50.45652" lon="3.34838">
        <ele>18.667291</ele>
        <time>2020-10-01T15:49:29.432Z</time>
      </trkpt>
      <trkpt lat="50.45611" lon="3.34853">
        <ele>18.693427</ele>
        <time>2020-10-01T15:49:35.727Z</time>
      </trkpt>
      <trkpt lat="50.45546" lon="3.3486">
        <ele>18.764799</ele>
        <time>2020-10-01T15:49:45.587Z</time>
      </trkpt>
      <trkpt lat="50.4538" lon="3.34795">
        <ele>18.913884</ele>
        <time>2020-10-01T15:50:11.887Z</time>
      </trkpt>
      <trkpt lat="50.45378" lon="3.34794">
        <ele>18.91424</ele>
        <time>2020-10-01T15:50:12.264Z</time>
      </trkpt>
      <trkpt lat="50.4537" lon="3.34791">
        <ele>18.915338</ele>
        <time>2020-10-01T15:50:13.503Z</time>
      </trkpt>
      <trkpt lat="50.45362" lon="3.34791">
        <ele>18.916414</ele>
        <time>2020-10-01T15:50:14.723Z</time>
      </trkpt>
      <trkpt lat="50.45359" lon="3.3479">
        <ele>18.916804</ele>
        <time>2020-10-01T15:50:15.185Z</time>
      </trkpt>
      <trkpt lat="50.45302" lon="3.34791">
        <ele>18.924375</ele>
        <time>2020-10-01T15:50:23.675Z</time>
      </trkpt>
      <trkpt lat="50.45273" lon="3.34802">
        <ele>18.928391</ele>
        <time>2020-10-01T15:50:28.108Z</time>
      </trkpt>
      <trkpt lat="50.45179" lon="3.34879">
        <ele>18.659954</ele>
        <time>2020-10-01T15:50:43.028Z</time>
      </trkpt>
      <trkpt lat="50.4515" lon="3.34893">
        <ele>18.559946</ele>
        <time>2020-10-01T15:50:47.135Z</time>
      </trkpt>
      <trkpt lat="50.45131" lon="3.34902">
        <ele>18.49456</ele>
        <time>2020-10-01T15:50:49.758Z</time>
      </trkpt>
      <trkpt lat="50.45036" lon="3.34917">
        <ele>18.078558</ele>
        <time>2020-10-01T15:51:02.354Z</time>
      </trkpt>
      <trkpt lat="50.44983" lon="3.34944">
        <ele>17.777043</ele>
        <time>2020-10-01T15:51:09.549Z</time>
      </trkpt>
      <trkpt lat="50.44956" lon="3.34977">
        <ele>17.592276</ele>
        <time>2020-10-01T15:51:14.054Z</time>
      </trkpt>
      <trkpt lat="50.44914" lon="3.35041">
        <ele>17.365634</ele>
        <time>2020-10-01T15:51:21.754Z</time>
      </trkpt>
      <trkpt lat="50.44884" lon="3.35088">
        <ele>17.37664</ele>
        <time>2020-10-01T15:51:27.526Z</time>
      </trkpt>
      <trkpt lat="50.44856" lon="3.35137">
        <ele>17.387625</ele>
        <time>2020-10-01T15:51:34.084Z</time>
      </trkpt>
      <trkpt lat="50.44833" lon="3.35176">
        <ele>17.396216</ele>
        <time>2020-10-01T15:51:39.420Z</time>
      </trkpt>
      <trkpt lat="50.44827" lon="3.35188">
        <ele>17.398795</ele>
        <time>2020-10-01T15:51:41.012Z</time>
      </trkpt>
      <trkpt lat="50.44799" lon="3.35232">
        <ele>17.417865</ele>
        <time>2020-10-01T15:51:47.451Z</time>
      </trkpt>
      <trkpt lat="50.4478" lon="3.35259">
        <ele>17.479952</ele>
        <time>2020-10-01T15:51:51.689Z</time>
      </trkpt>
      <trkpt lat="50.44769" lon="3.3527">
        <ele>17.51194</ele>
        <time>2020-10-01T15:51:53.802Z</time>
      </trkpt>
      <trkpt lat="50.44747" lon="3.35294">
        <ele>17.576914</ele>
        <time>2020-10-01T15:51:58.260Z</time>
      </trkpt>
      <trkpt lat="50.44644" lon="3.35366">
        <ele>17.845724</ele>
        <time>2020-10-01T15:52:16.049Z</time>
      </trkpt>
      <trkpt lat="50.44593" lon="3.35386">
        <ele>17.755846</ele>
        <time>2020-10-01T15:52:23.625Z</time>
      </trkpt>
      <trkpt lat="50.44557" lon="3.35387">
        <ele>17.695373</ele>
        <time>2020-10-01T15:52:28.531Z</time>
      </trkpt>
      <trkpt lat="50.4454" lon="3.35377">
        <ele>17.66465</ele>
        <time>2020-10-01T15:52:31.048Z</time>
      </trkpt>
      <trkpt lat="50.44526" lon="3.35363">
        <ele>17.636265</ele>
        <time>2020-10-01T15:52:33.361Z</time>
      </trkpt>
      <trkpt lat="50.44524" lon="3.35356">
        <ele>17.627576</ele>
        <time>2020-10-01T15:52:34.389Z</time>
      </trkpt>
      <trkpt lat="50.44521" lon="3.3535">
        <ele>17.620121</ele>
        <time>2020-10-01T15:52:35.231Z</time>
      </trkpt>
      <trkpt lat="50.44516" lon="3.35345">
        <ele>17.609419</ele>
        <time>2020-10-01T15:52:36.448Z</time>
      </trkpt>
      <trkpt lat="50.44509" lon="3.35343">
        <ele>17.598794</ele>
        <time>2020-10-01T15:52:37.637Z</time>
      </trkpt>
      <trkpt lat="50.44502" lon="3.35344">
        <ele>17.585806</ele>
        <time>2020-10-01T15:52:39.117Z</time>
      </trkpt>
      <trkpt lat="50.44491" lon="3.3536">
        <ele>17.560087</ele>
        <time>2020-10-01T15:52:42.091Z</time>
      </trkpt>
      <trkpt lat="50.4449" lon="3.35382">
        <ele>17.545636</ele>
        <time>2020-10-01T15:52:44.792Z</time>
      </trkpt>
      <trkpt lat="50.44493" lon="3.35391">
        <ele>17.547371</ele>
        <time>2020-10-01T15:52:45.954Z</time>
      </trkpt>
      <trkpt lat="50.44495" lon="3.35409">
        <ele>17.550713</ele>
        <time>2020-10-01T15:52:47.618Z</time>
      </trkpt>
      <trkpt lat="50.44495" lon="3.35438">
        <ele>17.556066</ele>
        <time>2020-10-01T15:52:50.232Z</time>
      </trkpt>
      <trkpt lat="50.44406" lon="3.3586">
        <ele>17.759292</ele>
        <time>2020-10-01T15:53:33.709Z</time>
      </trkpt>
      <trkpt lat="50.44392" lon="3.35844">
        <ele>17.779154</ele>
        <time>2020-10-01T15:53:36.218Z</time>
      </trkpt>
      <trkpt lat="50.44366" lon="3.35818">
        <ele>17.830279</ele>
        <time>2020-10-01T15:53:40.892Z</time>
      </trkpt>
      <trkpt lat="50.4435" lon="3.35789">
        <ele>17.891186</ele>
        <time>2020-10-01T15:53:44.846Z</time>
      </trkpt>
      <trkpt lat="50.44288" lon="3.35676">
        <ele>18.122434</ele>
        <time>2020-10-01T15:54:00.107Z</time>
      </trkpt>
      <trkpt lat="50.44267" lon="3.35635">
        <ele>18.203823</ele>
        <time>2020-10-01T15:54:05.442Z</time>
      </trkpt>
      <trkpt lat="50.44229" lon="3.35546">
        <ele>18.310228</ele>
        <time>2020-10-01T15:54:16.335Z</time>
      </trkpt>
      <trkpt lat="50.4421" lon="3.355">
        <ele>18.354864</ele>
        <time>2020-10-01T15:54:21.807Z</time>
      </trkpt>
      <trkpt lat="50.44183" lon="3.3543">
        <ele>18.422485</ele>
        <time>2020-10-01T15:54:30.064Z</time>
      </trkpt>
      <trkpt lat="50.44173" lon="3.35398">
        <ele>18.451393</ele>
        <time>2020-10-01T15:54:33.361Z</time>
      </trkpt>
      <trkpt lat="50.44155" lon="3.35329">
        <ele>18.322328</ele>
        <time>2020-10-01T15:54:39.959Z</time>
      </trkpt>
      <trkpt lat="50.44142" lon="3.35221">
        <ele>17.990064</ele>
        <time>2020-10-01T15:54:49.072Z</time>
      </trkpt>
      <trkpt lat="50.44141" lon="3.35209">
        <ele>17.95324</ele>
        <time>2020-10-01T15:54:50.087Z</time>
      </trkpt>
      <trkpt lat="50.44139" lon="3.35165">
        <ele>17.81806</ele>
        <time>2020-10-01T15:54:53.825Z</time>
      </trkpt>
      <trkpt lat="50.44143" lon="3.35127">
        <ele>17.700529</ele>
        <time>2020-10-01T15:54:57.078Z</time>
      </trkpt>
      <trkpt lat="50.44147" lon="3.35122">
        <ele>17.678213</ele>
        <time>2020-10-01T15:54:57.687Z</time>
      </trkpt>
      <trkpt lat="50.44149" lon="3.35115">
        <ele>17.655442</ele>
        <time>2020-10-01T15:54:58.323Z</time>
      </trkpt>
      <trkpt lat="50.4415" lon="3.35108">
        <ele>17.633107</ele>
        <time>2020-10-01T15:54:58.939Z</time>
      </trkpt>
      <trkpt lat="50.4415" lon="3.35101">
        <ele>17.61428</ele>
        <time>2020-10-01T15:54:59.552Z</time>
      </trkpt>
      <trkpt lat="50.44148" lon="3.35095">
        <ele>17.607551</ele>
        <time>2020-10-01T15:55:00.073Z</time>
      </trkpt>
      <trkpt lat="50.44145" lon="3.3509">
        <ele>17.600866</ele>
        <time>2020-10-01T15:55:00.572Z</time>
      </trkpt>
      <trkpt lat="50.44142" lon="3.35086">
        <ele>17.594149</ele>
        <time>2020-10-01T15:55:01.127Z</time>
      </trkpt>
      <trkpt lat="50.44138" lon="3.35084">
        <ele>17.587378</ele>
        <time>2020-10-01T15:55:01.683Z</time>
      </trkpt>
      <trkpt lat="50.4413" lon="3.3505">
        <ele>17.549087</ele>
        <time>2020-10-01T15:55:04.776Z</time>
      </trkpt>
      <trkpt lat="50.4413" lon="3.35046">
        <ele>17.544088</ele>
        <time>2020-10-01T15:55:05.142Z</time>
      </trkpt>
      <trkpt lat="50.44112" lon="3.34959">
        <ele>17.446341</ele>
        <time>2020-10-01T15:55:13.337Z</time>
      </trkpt>
      <trkpt lat="50.44089" lon="3.34888">
        <ele>17.362479</ele>
        <time>2020-10-01T15:55:20.529Z</time>
      </trkpt>
      <trkpt lat="50.44082" lon="3.34865">
        <ele>17.335329</ele>
        <time>2020-10-01T15:55:23.095Z</time>
      </trkpt>
      <trkpt lat="50.44062" lon="3.34805">
        <ele>17.493566</ele>
        <time>2020-10-01T15:55:30.088Z</time>
      </trkpt>
      <trkpt lat="50.44058" lon="3.34742">
        <ele>17.725308</ele>
        <time>2020-10-01T15:55:37.030Z</time>
      </trkpt>
      <trkpt lat="50.4407" lon="3.34583">
        <ele>18.303311</ele>
        <time>2020-10-01T15:55:55.191Z</time>
      </trkpt>
      <trkpt lat="50.44064" lon="3.34517">
        <ele>18.551449</ele>
        <time>2020-10-01T15:56:02.655Z</time>
      </trkpt>
      <trkpt lat="50.44004" lon="3.34269">
        <ele>19.423559</ele>
        <time>2020-10-01T15:56:31.500Z</time>
      </trkpt>
      <trkpt lat="50.43975" lon="3.34167">
        <ele>19.496404</ele>
        <time>2020-10-01T15:56:42.743Z</time>
      </trkpt>
      <trkpt lat="50.43957" lon="3.34039">
        <ele>19.578992</ele>
        <time>2020-10-01T15:56:55.020Z</time>
      </trkpt>
      <trkpt lat="50.43958" lon="3.33992">
        <ele>19.426364</ele>
        <time>2020-10-01T15:56:58.963Z</time>
      </trkpt>
      <trkpt lat="50.43946" lon="3.33991">
        <ele>19.363043</ele>
        <time>2020-10-01T15:57:00.634Z</time>
      </trkpt>
      <trkpt lat="50.43877" lon="3.33966">
        <ele>19.000159</ele>
        <time>2020-10-01T15:57:09.881Z</time>
      </trkpt>
      <trkpt lat="50.43854" lon="3.33976">
        <ele>18.877259</ele>
        <time>2020-10-01T15:57:12.937Z</time>
      </trkpt>
      <trkpt lat="50.43843" lon="3.33989">
        <ele>18.807519</ele>
        <time>2020-10-01T15:57:14.737Z</time>
      </trkpt>
      <trkpt lat="50.43838" lon="3.34">
        <ele>18.762253</ele>
        <time>2020-10-01T15:57:15.825Z</time>
      </trkpt>
      <trkpt lat="50.43829" lon="3.3402">
        <ele>18.684089</ele>
        <time>2020-10-01T15:57:17.805Z</time>
      </trkpt>
      <trkpt lat="50.43784" lon="3.34154">
        <ele>18.163833</ele>
        <time>2020-10-01T15:57:30.381Z</time>
      </trkpt>
      <trkpt lat="50.43757" lon="3.34211">
        <ele>17.919976</ele>
        <time>2020-10-01T15:57:36.297Z</time>
      </trkpt>
      <trkpt lat="50.43711" lon="3.34283">
        <ele>17.629241</ele>
        <time>2020-10-01T15:57:45.241Z</time>
      </trkpt>
      <trkpt lat="50.43618" lon="3.34403">
        <ele>17.321366</ele>
        <time>2020-10-01T15:58:01.952Z</time>
      </trkpt>
      <trkpt lat="50.43587" lon="3.34428">
        <ele>17.232452</ele>
        <time>2020-10-01T15:58:06.941Z</time>
      </trkpt>
      <trkpt lat="50.43551" lon="3.34461">
        <ele>17.259208</ele>
        <time>2020-10-01T15:58:12.982Z</time>
      </trkpt>
      <trkpt lat="50.43499" lon="3.34492">
        <ele>17.309285</ele>
        <time>2020-10-01T15:58:21.544Z</time>
      </trkpt>
      <trkpt lat="50.43429" lon="3.34527">
        <ele>17.373635</ele>
        <time>2020-10-01T15:58:32.838Z</time>
      </trkpt>
      <trkpt lat="50.43445" lon="3.34579">
        <ele>17.383313</ele>
        <time>2020-10-01T15:58:38.580Z</time>
      </trkpt>
      <trkpt lat="50.43451" lon="3.34612">
        <ele>17.382014</ele>
        <time>2020-10-01T15:58:41.955Z</time>
      </trkpt>
      <trkpt lat="50.43453" lon="3.34634">
        <ele>17.381204</ele>
        <time>2020-10-01T15:58:44.108Z</time>
      </trkpt>
      <trkpt lat="50.43463" lon="3.34681">
        <ele>17.379351</ele>
        <time>2020-10-01T15:58:48.897Z</time>
      </trkpt>
      <trkpt lat="50.43526" lon="3.34817">
        <ele>17.294535</ele>
        <time>2020-10-01T15:59:04.456Z</time>
      </trkpt>
      <trkpt lat="50.43532" lon="3.34848">
        <ele>17.206407</ele>
        <time>2020-10-01T15:59:07.313Z</time>
      </trkpt>
      <trkpt lat="50.43529" lon="3.34884">
        <ele>17.109262</ele>
        <time>2020-10-01T15:59:10.422Z</time>
      </trkpt>
      <trkpt lat="50.43519" lon="3.34909">
        <ele>17.029249</ele>
        <time>2020-10-01T15:59:12.949Z</time>
      </trkpt>
      <trkpt lat="50.43478" lon="3.34957">
        <ele>16.815422</ele>
        <time>2020-10-01T15:59:19.639Z</time>
      </trkpt>
      <trkpt lat="50.43471" lon="3.34976">
        <ele>16.757229</ele>
        <time>2020-10-01T15:59:21.344Z</time>
      </trkpt>
      <trkpt lat="50.43479" lon="3.35139">
        <ele>16.301958</ele>
        <time>2020-10-01T15:59:35.014Z</time>
      </trkpt>
      <trkpt lat="50.43473" lon="3.35179">
        <ele>16.18686</ele>
        <time>2020-10-01T15:59:38.580Z</time>
      </trkpt>
      <trkpt lat="50.43463" lon="3.35205">
        <ele>16.100933</ele>
        <time>2020-10-01T15:59:41.099Z</time>
      </trkpt>
      <trkpt lat="50.43453" lon="3.35228">
        <ele>16.024264</ele>
        <time>2020-10-01T15:59:43.588Z</time>
      </trkpt>
      <trkpt lat="50.43445" lon="3.35244">
        <ele>15.966125</ele>
        <time>2020-10-01T15:59:45.300Z</time>
      </trkpt>
      <trkpt lat="50.43435" lon="3.35261">
        <ele>15.901052</ele>
        <time>2020-10-01T15:59:47.455Z</time>
      </trkpt>
      <trkpt lat="50.43333" lon="3.35354">
        <ele>15.847745</ele>
        <time>2020-10-01T16:00:04.441Z</time>
      </trkpt>
      <trkpt lat="50.43248" lon="3.35451">
        <ele>15.932767</ele>
        <time>2020-10-01T16:00:20.870Z</time>
      </trkpt>
      <trkpt lat="50.43221" lon="3.35461">
        <ele>16.002806</ele>
        <time>2020-10-01T16:00:25.259Z</time>
      </trkpt>
      <trkpt lat="50.43151" lon="3.35465">
        <ele>16.178936</ele>
        <time>2020-10-01T16:00:36.395Z</time>
      </trkpt>
      <trkpt lat="50.43071" lon="3.35479">
        <ele>16.336583</ele>
        <time>2020-10-01T16:00:49.319Z</time>
      </trkpt>
      <trkpt lat="50.42973" lon="3.35503">
        <ele>16.392545</ele>
        <time>2020-10-01T16:01:04.480Z</time>
      </trkpt>
      <trkpt lat="50.42942" lon="3.35521">
        <ele>16.411633</ele>
        <time>2020-10-01T16:01:09.462Z</time>
      </trkpt>
      <trkpt lat="50.42926" lon="3.35534">
        <ele>16.42166</ele>
        <time>2020-10-01T16:01:12.024Z</time>
      </trkpt>
      <trkpt lat="50.42906" lon="3.35559">
        <ele>16.395189</ele>
        <time>2020-10-01T16:01:15.675Z</time>
      </trkpt>
      <trkpt lat="50.42871" lon="3.3581">
        <ele>16.143938</ele>
        <time>2020-10-01T16:01:38.898Z</time>
      </trkpt>
      <trkpt lat="50.42852" lon="3.35948">
        <ele>16.14253</ele>
        <time>2020-10-01T16:01:52.250Z</time>
      </trkpt>
      <trkpt lat="50.42847" lon="3.35996">
        <ele>16.14204</ele>
        <time>2020-10-01T16:01:56.973Z</time>
      </trkpt>
      <trkpt lat="50.42724" lon="3.36873">
        <ele>16.478332</ele>
        <time>2020-10-01T16:03:23.365Z</time>
      </trkpt>
      <trkpt lat="50.42718" lon="3.36892">
        <ele>16.485821</ele>
        <time>2020-10-01T16:03:25.380Z</time>
      </trkpt>
      <trkpt lat="50.4271" lon="3.36898">
        <ele>16.490678</ele>
        <time>2020-10-01T16:03:26.684Z</time>
      </trkpt>
      <trkpt lat="50.42686" lon="3.36915">
        <ele>16.466928</ele>
        <time>2020-10-01T16:03:30.646Z</time>
      </trkpt>
      <trkpt lat="50.42672" lon="3.36924">
        <ele>16.45262</ele>
        <time>2020-10-01T16:03:32.842Z</time>
      </trkpt>
      <trkpt lat="50.42613" lon="3.36958">
        <ele>16.390958</ele>
        <time>2020-10-01T16:03:42.110Z</time>
      </trkpt>
      <trkpt lat="50.42555" lon="3.36998">
        <ele>16.329393</ele>
        <time>2020-10-01T16:03:51.238Z</time>
      </trkpt>
      <trkpt lat="50.42528" lon="3.37022">
        <ele>16.29749</ele>
        <time>2020-10-01T16:03:55.509Z</time>
      </trkpt>
      <trkpt lat="50.42464" lon="3.37078">
        <ele>16.216888</ele>
        <time>2020-10-01T16:04:05.503Z</time>
      </trkpt>
      <trkpt lat="50.42386" lon="3.37172">
        <ele>16.190958</ele>
        <time>2020-10-01T16:04:20.049Z</time>
      </trkpt>
      <trkpt lat="50.42376" lon="3.37193">
        <ele>16.326591</ele>
        <time>2020-10-01T16:04:22.738Z</time>
      </trkpt>
      <trkpt lat="50.42437" lon="3.37285">
        <ele>16.987252</ele>
        <time>2020-10-01T16:04:37.794Z</time>
      </trkpt>
      <trkpt lat="50.4248" lon="3.37352">
        <ele>17.463084</ele>
        <time>2020-10-01T16:04:49.641Z</time>
      </trkpt>
      <trkpt lat="50.4254" lon="3.37484">
        <ele>18.163541</ele>
        <time>2020-10-01T16:05:10.162Z</time>
      </trkpt>
      <trkpt lat="50.42557" lon="3.37552">
        <ele>18.473441</ele>
        <time>2020-10-01T16:05:18.514Z</time>
      </trkpt>
      <trkpt lat="50.42618" lon="3.37952">
        <ele>17.575386</ele>
        <time>2020-10-01T16:05:53.243Z</time>
      </trkpt>
      <trkpt lat="50.42626" lon="3.38072">
        <ele>17.022495</ele>
        <time>2020-10-01T16:06:02.711Z</time>
      </trkpt>
      <trkpt lat="50.4264" lon="3.38271">
        <ele>16.392281</ele>
        <time>2020-10-01T16:06:19.102Z</time>
      </trkpt>
      <trkpt lat="50.4265" lon="3.38379">
        <ele>16.184696</ele>
        <time>2020-10-01T16:06:29.143Z</time>
      </trkpt>
      <trkpt lat="50.42697" lon="3.38664">
        <ele>16.196338</ele>
        <time>2020-10-01T16:06:57.757Z</time>
      </trkpt>
      <trkpt lat="50.42705" lon="3.3867">
        <ele>16.2051</ele>
        <time>2020-10-01T16:06:59.120Z</time>
      </trkpt>
      <trkpt lat="50.42799" lon="3.38641">
        <ele>16.231306</ele>
        <time>2020-10-01T16:07:13.869Z</time>
      </trkpt>
      <trkpt lat="50.42809" lon="3.38638">
        <ele>16.23183</ele>
        <time>2020-10-01T16:07:15.317Z</time>
      </trkpt>
      <trkpt lat="50.42819" lon="3.38634">
        <ele>16.23237</ele>
        <time>2020-10-01T16:07:16.847Z</time>
      </trkpt>
      <trkpt lat="50.42832" lon="3.38751">
        <ele>16.23613</ele>
        <time>2020-10-01T16:07:27.791Z</time>
      </trkpt>
      <trkpt lat="50.42832" lon="3.38759">
        <ele>16.236384</ele>
        <time>2020-10-01T16:07:28.634Z</time>
      </trkpt>
      <trkpt lat="50.42826" lon="3.38764">
        <ele>16.236746</ele>
        <time>2020-10-01T16:07:30.044Z</time>
      </trkpt>
      <trkpt lat="50.42805" lon="3.38782">
        <ele>16.304513</ele>
        <time>2020-10-01T16:07:34.715Z</time>
      </trkpt>
      <trkpt lat="50.42794" lon="3.38792">
        <ele>16.341139</ele>
        <time>2020-10-01T16:07:37.363Z</time>
      </trkpt>
      <trkpt lat="50.42783" lon="3.38802">
        <ele>16.377853</ele>
        <time>2020-10-01T16:07:39.895Z</time>
      </trkpt>
      <trkpt lat="50.42722" lon="3.3883">
        <ele>16.559662</ele>
        <time>2020-10-01T16:07:53.705Z</time>
      </trkpt>
      <trkpt lat="50.42691" lon="3.38841">
        <ele>16.649762</ele>
        <time>2020-10-01T16:08:00.645Z</time>
      </trkpt>
      <trkpt lat="50.42666" lon="3.38849">
        <ele>16.72406</ele>
        <time>2020-10-01T16:08:06.338Z</time>
      </trkpt>
      <trkpt lat="50.42616" lon="3.38838">
        <ele>17.013004</ele>
        <time>2020-10-01T16:08:14.705Z</time>
      </trkpt>
      <trkpt lat="50.42599" lon="3.3882">
        <ele>17.147306</ele>
        <time>2020-10-01T16:08:18.482Z</time>
      </trkpt>
      <trkpt lat="50.4258" lon="3.388">
        <ele>17.294833</ele>
        <time>2020-10-01T16:08:22.504Z</time>
      </trkpt>
      <trkpt lat="50.42525" lon="3.38725">
        <ele>17.764935</ele>
        <time>2020-10-01T16:08:39.696Z</time>
      </trkpt>
      <trkpt lat="50.42503" lon="3.38701">
        <ele>17.939642</ele>
        <time>2020-10-01T16:08:45.956Z</time>
      </trkpt>
      <trkpt lat="50.42441" lon="3.38625">
        <ele>18.441862</ele>
        <time>2020-10-01T16:09:03.280Z</time>
      </trkpt>
      <trkpt lat="50.42418" lon="3.38629">
        <ele>18.587565</ele>
        <time>2020-10-01T16:09:07.330Z</time>
      </trkpt>
      <trkpt lat="50.4231" lon="3.3867">
        <ele>19.147047</ele>
        <time>2020-10-01T16:09:26.954Z</time>
      </trkpt>
      <trkpt lat="50.42293" lon="3.38672">
        <ele>19.182048</ele>
        <time>2020-10-01T16:09:29.702Z</time>
      </trkpt>
      <trkpt lat="50.42283" lon="3.38673">
        <ele>19.20452</ele>
        <time>2020-10-01T16:09:31.524Z</time>
      </trkpt>
      <trkpt lat="50.42258" lon="3.38689">
        <ele>19.26342</ele>
        <time>2020-10-01T16:09:35.821Z</time>
      </trkpt>
      <trkpt lat="50.42251" lon="3.38693">
        <ele>19.27916</ele>
        <time>2020-10-01T16:09:37.004Z</time>
      </trkpt>
      <trkpt lat="50.422" lon="3.38721">
        <ele>19.395535</ele>
        <time>2020-10-01T16:09:44.879Z</time>
      </trkpt>
      <trkpt lat="50.42173" lon="3.38739">
        <ele>19.45086</ele>
        <time>2020-10-01T16:09:49.042Z</time>
      </trkpt>
      <trkpt lat="50.42138" lon="3.38742">
        <ele>19.340068</ele>
        <time>2020-10-01T16:09:54.110Z</time>
      </trkpt>
      <trkpt lat="50.42102" lon="3.38736">
        <ele>19.228795</ele>
        <time>2020-10-01T16:09:58.948Z</time>
      </trkpt>
      <trkpt lat="50.42089" lon="3.38737">
        <ele>19.188413</ele>
        <time>2020-10-01T16:10:00.650Z</time>
      </trkpt>
      <trkpt lat="50.42075" lon="3.38738">
        <ele>19.144837</ele>
        <time>2020-10-01T16:10:02.502Z</time>
      </trkpt>
      <trkpt lat="50.41986" lon="3.38766">
        <ele>18.866562</ele>
        <time>2020-10-01T16:10:14.955Z</time>
      </trkpt>
      <trkpt lat="50.41972" lon="3.38764">
        <ele>18.828749</ele>
        <time>2020-10-01T16:10:16.838Z</time>
      </trkpt>
      <trkpt lat="50.41942" lon="3.38738">
        <ele>18.734156</ele>
        <time>2020-10-01T16:10:21.739Z</time>
      </trkpt>
      <trkpt lat="50.41898" lon="3.3872">
        <ele>18.609171</ele>
        <time>2020-10-01T16:10:28.226Z</time>
      </trkpt>
      <trkpt lat="50.41825" lon="3.38703">
        <ele>18.407543</ele>
        <time>2020-10-01T16:10:38.163Z</time>
      </trkpt>
      <trkpt lat="50.418" lon="3.38696">
        <ele>18.356747</ele>
        <time>2020-10-01T16:10:41.735Z</time>
      </trkpt>
      <trkpt lat="50.41739" lon="3.38687">
        <ele>18.238372</ele>
        <time>2020-10-01T16:10:50.181Z</time>
      </trkpt>
      <trkpt lat="50.41725" lon="3.38688">
        <ele>18.210392</ele>
        <time>2020-10-01T16:10:52.358Z</time>
      </trkpt>
      <trkpt lat="50.41711" lon="3.38698">
        <ele>18.180485</ele>
        <time>2020-10-01T16:10:54.414Z</time>
      </trkpt>
      <trkpt lat="50.41693" lon="3.38735">
        <ele>18.123836</ele>
        <time>2020-10-01T16:10:58.718Z</time>
      </trkpt>
      <trkpt lat="50.41677" lon="3.38721">
        <ele>18.088521</ele>
        <time>2020-10-01T16:11:01.428Z</time>
      </trkpt>
      <trkpt lat="50.41656" lon="3.38713">
        <ele>18.051554</ele>
        <time>2020-10-01T16:11:04.462Z</time>
      </trkpt>
      <trkpt lat="50.41626" lon="3.38688">
        <ele>18.032118</ele>
        <time>2020-10-01T16:11:09.307Z</time>
      </trkpt>
      <trkpt lat="50.41598" lon="3.38667">
        <ele>18.014014</ele>
        <time>2020-10-01T16:11:13.989Z</time>
      </trkpt>
      <trkpt lat="50.41566" lon="3.38641">
        <ele>17.993225</ele>
        <time>2020-10-01T16:11:19.427Z</time>
      </trkpt>
      <trkpt lat="50.41522" lon="3.38604">
        <ele>17.963867</ele>
        <time>2020-10-01T16:11:27.154Z</time>
      </trkpt>
      <trkpt lat="50.4141" lon="3.38573">
        <ele>17.538667</ele>
        <time>2020-10-01T16:11:42.752Z</time>
      </trkpt>
      <trkpt lat="50.41295" lon="3.38499">
        <ele>17.001914</ele>
        <time>2020-10-01T16:11:58.720Z</time>
      </trkpt>
      <trkpt lat="50.4119" lon="3.38461">
        <ele>16.609375</ele>
        <time>2020-10-01T16:12:12.949Z</time>
      </trkpt>
      <trkpt lat="50.41026" lon="3.38342">
        <ele>17.484871</ele>
        <time>2020-10-01T16:12:41.641Z</time>
      </trkpt>
      <trkpt lat="50.41008" lon="3.3834">
        <ele>17.616509</ele>
        <time>2020-10-01T16:12:45.875Z</time>
      </trkpt>
      <trkpt lat="50.40909" lon="3.38386">
        <ele>19.38715</ele>
        <time>2020-10-01T16:13:10.024Z</time>
      </trkpt>
      <trkpt lat="50.4089" lon="3.38395">
        <ele>19.773801</ele>
        <time>2020-10-01T16:13:14.136Z</time>
      </trkpt>
      <trkpt lat="50.40886" lon="3.38394">
        <ele>19.862212</ele>
        <time>2020-10-01T16:13:15.762Z</time>
      </trkpt>
      <trkpt lat="50.40881" lon="3.38394">
        <ele>19.952479</ele>
        <time>2020-10-01T16:13:17.276Z</time>
      </trkpt>
      <trkpt lat="50.40837" lon="3.38361">
        <ele>20.908946</ele>
        <time>2020-10-01T16:13:28.947Z</time>
      </trkpt>
      <trkpt lat="50.40482" lon="3.38043">
        <ele>25.728466</ele>
        <time>2020-10-01T16:14:49.731Z</time>
      </trkpt>
      <trkpt lat="50.40219" lon="3.37809">
        <ele>24.853633</ele>
        <time>2020-10-01T16:15:30.218Z</time>
      </trkpt>
      <trkpt lat="50.40193" lon="3.37783">
        <ele>24.709227</ele>
        <time>2020-10-01T16:15:34.256Z</time>
      </trkpt>
      <trkpt lat="50.40172" lon="3.37767">
        <ele>24.647977</ele>
        <time>2020-10-01T16:15:37.234Z</time>
      </trkpt>
      <trkpt lat="50.40147" lon="3.37751">
        <ele>24.576277</ele>
        <time>2020-10-01T16:15:40.881Z</time>
      </trkpt>
      <trkpt lat="50.40104" lon="3.37745">
        <ele>24.463434</ele>
        <time>2020-10-01T16:15:46.776Z</time>
      </trkpt>
      <trkpt lat="50.39974" lon="3.37765">
        <ele>23.722645</ele>
        <time>2020-10-01T16:16:06.178Z</time>
      </trkpt>
      <trkpt lat="50.39895" lon="3.37777">
        <ele>22.866038</ele>
        <time>2020-10-01T16:16:15.650Z</time>
      </trkpt>
      <trkpt lat="50.39837" lon="3.37772">
        <ele>22.18315</ele>
        <time>2020-10-01T16:16:22.067Z</time>
      </trkpt>
      <trkpt lat="50.39779" lon="3.3776">
        <ele>20.909486</ele>
        <time>2020-10-01T16:16:28.392Z</time>
      </trkpt>
      <trkpt lat="50.3975" lon="3.37767">
        <ele>20.269249</ele>
        <time>2020-10-01T16:16:31.479Z</time>
      </trkpt>
      <trkpt lat="50.39703" lon="3.37776">
        <ele>19.238386</ele>
        <time>2020-10-01T16:16:36.444Z</time>
      </trkpt>
      <trkpt lat="50.39665" lon="3.37774">
        <ele>18.399597</ele>
        <time>2020-10-01T16:16:40.634Z</time>
      </trkpt>
      <trkpt lat="50.39604" lon="3.37752">
        <ele>17.861332</ele>
        <time>2020-10-01T16:16:47.921Z</time>
      </trkpt>
      <trkpt lat="50.39585" lon="3.37737">
        <ele>17.683433</ele>
        <time>2020-10-01T16:16:50.681Z</time>
      </trkpt>
      <trkpt lat="50.39506" lon="3.37622">
        <ele>16.831816</ele>
        <time>2020-10-01T16:17:05.330Z</time>
      </trkpt>
      <trkpt lat="50.39481" lon="3.37593">
        <ele>16.758291</ele>
        <time>2020-10-01T16:17:09.787Z</time>
      </trkpt>
      <trkpt lat="50.39236" lon="3.37444">
        <ele>16.202143</ele>
        <time>2020-10-01T16:17:46.834Z</time>
      </trkpt>
      <trkpt lat="50.3908" lon="3.37379">
        <ele>15.928536</ele>
        <time>2020-10-01T16:18:09.575Z</time>
      </trkpt>
      <trkpt lat="50.39067" lon="3.37372">
        <ele>15.907437</ele>
        <time>2020-10-01T16:18:11.411Z</time>
      </trkpt>
      <trkpt lat="50.39061" lon="3.37368">
        <ele>15.896796</ele>
        <time>2020-10-01T16:18:12.467Z</time>
      </trkpt>
      <trkpt lat="50.39047" lon="3.37357">
        <ele>15.871573</ele>
        <time>2020-10-01T16:18:14.785Z</time>
      </trkpt>
      <trkpt lat="50.3896" lon="3.37264">
        <ele>15.719188</ele>
        <time>2020-10-01T16:18:30.125Z</time>
      </trkpt>
      <trkpt lat="50.38561" lon="3.36835">
        <ele>15.097535</ele>
        <time>2020-10-01T16:19:39.208Z</time>
      </trkpt>
      <trkpt lat="50.3816" lon="3.36428">
        <ele>16.12262</ele>
        <time>2020-10-01T16:20:53.866Z</time>
      </trkpt>
      <trkpt lat="50.37975" lon="3.36313">
        <ele>17.216543</ele>
        <time>2020-10-01T16:21:29.158Z</time>
      </trkpt>
      <trkpt lat="50.37926" lon="3.36278">
        <ele>17.387929</ele>
        <time>2020-10-01T16:21:37.919Z</time>
      </trkpt>
      <trkpt lat="50.37905" lon="3.36518">
        <ele>17.25376</ele>
        <time>2020-10-01T16:21:59.956Z</time>
      </trkpt>
      <trkpt lat="50.3779" lon="3.3675">
        <ele>16.7619</ele>
        <time>2020-10-01T16:22:25.323Z</time>
      </trkpt>
      <trkpt lat="50.37612" lon="3.37063">
        <ele>17.571831</ele>
        <time>2020-10-01T16:23:08.116Z</time>
      </trkpt>
      <trkpt lat="50.37595" lon="3.37101">
        <ele>17.715094</ele>
        <time>2020-10-01T16:23:13.195Z</time>
      </trkpt>
      <trkpt lat="50.37566" lon="3.37222">
        <ele>18.203513</ele>
        <time>2020-10-01T16:23:27.760Z</time>
      </trkpt>
      <trkpt lat="50.3756" lon="3.37267">
        <ele>18.456987</ele>
        <time>2020-10-01T16:23:33.178Z</time>
      </trkpt>
      <trkpt lat="50.37576" lon="3.37326">
        <ele>18.806082</ele>
        <time>2020-10-01T16:23:40.918Z</time>
      </trkpt>
      <trkpt lat="50.37583" lon="3.37352">
        <ele>18.95522</ele>
        <time>2020-10-01T16:23:44.170Z</time>
      </trkpt>
      <trkpt lat="50.37591" lon="3.37398">
        <ele>19.215511</ele>
        <time>2020-10-01T16:23:50.002Z</time>
      </trkpt>
      <trkpt lat="50.37588" lon="3.37493">
        <ele>19.654579</ele>
        <time>2020-10-01T16:24:00.981Z</time>
      </trkpt>
      <trkpt lat="50.37594" lon="3.37543">
        <ele>19.828222</ele>
        <time>2020-10-01T16:24:06.619Z</time>
      </trkpt>
      <trkpt lat="50.37593" lon="3.37556">
        <ele>19.870943</ele>
        <time>2020-10-01T16:24:08.312Z</time>
      </trkpt>
      <trkpt lat="50.37589" lon="3.37562">
        <ele>19.899786</ele>
        <time>2020-10-01T16:24:09.131Z</time>
      </trkpt>
      <trkpt lat="50.37555" lon="3.37583">
        <ele>20.09897</ele>
        <time>2020-10-01T16:24:15.680Z</time>
      </trkpt>
      <trkpt lat="50.37543" lon="3.37598">
        <ele>20.181495</ele>
        <time>2020-10-01T16:24:18.127Z</time>
      </trkpt>
      <trkpt lat="50.37528" lon="3.37697">
        <ele>20.483897</ele>
        <time>2020-10-01T16:24:28.608Z</time>
      </trkpt>
      <trkpt lat="50.37491" lon="3.3782">
        <ele>20.443943</ele>
        <time>2020-10-01T16:24:41.218Z</time>
      </trkpt>
      <trkpt lat="50.37484" lon="3.37907">
        <ele>20.417944</ele>
        <time>2020-10-01T16:24:49.286Z</time>
      </trkpt>
      <trkpt lat="50.37477" lon="3.38038">
        <ele>20.44733</ele>
        <time>2020-10-01T16:25:01.507Z</time>
      </trkpt>
      <trkpt lat="50.37474" lon="3.38066">
        <ele>20.46192</ele>
        <time>2020-10-01T16:25:04.084Z</time>
      </trkpt>
      <trkpt lat="50.37451" lon="3.38183">
        <ele>20.523677</ele>
        <time>2020-10-01T16:25:15.772Z</time>
      </trkpt>
      <trkpt lat="50.37442" lon="3.38228">
        <ele>20.549466</ele>
        <time>2020-10-01T16:25:20.542Z</time>
      </trkpt>
      <trkpt lat="50.3743" lon="3.38254">
        <ele>20.67328</ele>
        <time>2020-10-01T16:25:24.010Z</time>
      </trkpt>
      <trkpt lat="50.3742" lon="3.38271">
        <ele>20.76047</ele>
        <time>2020-10-01T16:25:26.403Z</time>
      </trkpt>
      <trkpt lat="50.3741" lon="3.38277">
        <ele>20.827261</ele>
        <time>2020-10-01T16:25:28.297Z</time>
      </trkpt>
      <trkpt lat="50.37397" lon="3.38286">
        <ele>20.908995</ele>
        <time>2020-10-01T16:25:30.697Z</time>
      </trkpt>
      <trkpt lat="50.37366" lon="3.38335">
        <ele>21.173218</ele>
        <time>2020-10-01T16:25:38.257Z</time>
      </trkpt>
      <trkpt lat="50.37317" lon="3.38457">
        <ele>21.775916</ele>
        <time>2020-10-01T16:25:54.747Z</time>
      </trkpt>
      <trkpt lat="50.37282" lon="3.38607">
        <ele>22.719047</ele>
        <time>2020-10-01T16:26:14.319Z</time>
      </trkpt>
      <trkpt lat="50.37264" lon="3.38679">
        <ele>23.173043</ele>
        <time>2020-10-01T16:26:23.528Z</time>
      </trkpt>
      <trkpt lat="50.37253" lon="3.3882">
        <ele>23.427863</ele>
        <time>2020-10-01T16:26:39.045Z</time>
      </trkpt>
      <trkpt lat="50.37246" lon="3.38933">
        <ele>23.560568</ele>
        <time>2020-10-01T16:26:49.761Z</time>
      </trkpt>
      <trkpt lat="50.37258" lon="3.38943">
        <ele>23.585525</ele>
        <time>2020-10-01T16:26:51.632Z</time>
      </trkpt>
      <trkpt lat="50.37265" lon="3.38948">
        <ele>23.599195</ele>
        <time>2020-10-01T16:26:52.687Z</time>
      </trkpt>
      <trkpt lat="50.37266" lon="3.38948">
        <ele>23.600169</ele>
        <time>2020-10-01T16:26:52.744Z</time>
      </trkpt>
      <trkpt lat="50.37283" lon="3.38972">
        <ele>23.524639</ele>
        <time>2020-10-01T16:26:55.859Z</time>
      </trkpt>
      <trkpt lat="50.37284" lon="3.38974">
        <ele>23.514572</ele>
        <time>2020-10-01T16:26:56.111Z</time>
      </trkpt>
      <trkpt lat="50.37285" lon="3.38975">
        <ele>23.50744</ele>
        <time>2020-10-01T16:26:56.293Z</time>
      </trkpt>
      <trkpt lat="50.37289" lon="3.38988">
        <ele>23.455644</ele>
        <time>2020-10-01T16:26:57.563Z</time>
      </trkpt>
      <trkpt lat="50.37293" lon="3.39004">
        <ele>23.397073</ele>
        <time>2020-10-01T16:26:58.931Z</time>
      </trkpt>
      <trkpt lat="50.37297" lon="3.39024">
        <ele>23.324335</ele>
        <time>2020-10-01T16:27:00.646Z</time>
      </trkpt>
      <trkpt lat="50.37302" lon="3.39045">
        <ele>23.24625</ele>
        <time>2020-10-01T16:27:02.558Z</time>
      </trkpt>
      <trkpt lat="50.37302" lon="3.39049">
        <ele>23.233559</ele>
        <time>2020-10-01T16:27:02.872Z</time>
      </trkpt>
      <trkpt lat="50.37303" lon="3.39055">
        <ele>23.210686</ele>
        <time>2020-10-01T16:27:03.385Z</time>
      </trkpt>
      <trkpt lat="50.37336" lon="3.39207">
        <ele>22.648245</ele>
        <time>2020-10-01T16:27:16.626Z</time>
      </trkpt>
      <trkpt lat="50.37337" lon="3.3923">
        <ele>22.570006</ele>
        <time>2020-10-01T16:27:18.494Z</time>
      </trkpt>
      <trkpt lat="50.37337" lon="3.39254">
        <ele>22.493688</ele>
        <time>2020-10-01T16:27:20.588Z</time>
      </trkpt>
      <trkpt lat="50.37338" lon="3.39278">
        <ele>22.414264</ele>
        <time>2020-10-01T16:27:22.661Z</time>
      </trkpt>
      <trkpt lat="50.37338" lon="3.39291">
        <ele>22.373155</ele>
        <time>2020-10-01T16:27:23.685Z</time>
      </trkpt>
      <trkpt lat="50.37333" lon="3.39322">
        <ele>22.268834</ele>
        <time>2020-10-01T16:27:26.574Z</time>
      </trkpt>
      <trkpt lat="50.37333" lon="3.39334">
        <ele>22.229697</ele>
        <time>2020-10-01T16:27:27.607Z</time>
      </trkpt>
      <trkpt lat="50.37333" lon="3.39339">
        <ele>22.213713</ele>
        <time>2020-10-01T16:27:27.970Z</time>
      </trkpt>
      <trkpt lat="50.37349" lon="3.39417">
        <ele>21.945804</ele>
        <time>2020-10-01T16:27:35.162Z</time>
      </trkpt>
      <trkpt lat="50.37385" lon="3.39698">
        <ele>20.898793</ele>
        <time>2020-10-01T16:27:58.929Z</time>
      </trkpt>
      <trkpt lat="50.37387" lon="3.39732">
        <ele>20.769</ele>
        <time>2020-10-01T16:28:01.727Z</time>
      </trkpt>
      <trkpt lat="50.37387" lon="3.39738">
        <ele>20.743135</ele>
        <time>2020-10-01T16:28:02.234Z</time>
      </trkpt>
      <trkpt lat="50.37389" lon="3.39795">
        <ele>20.577197</ele>
        <time>2020-10-01T16:28:06.995Z</time>
      </trkpt>
      <trkpt lat="50.37397" lon="3.39866">
        <ele>20.430353</ele>
        <time>2020-10-01T16:28:13.269Z</time>
      </trkpt>
      <trkpt lat="50.37404" lon="3.39898">
        <ele>20.36309</ele>
        <time>2020-10-01T16:28:16.068Z</time>
      </trkpt>
      <trkpt lat="50.37414" lon="3.39946">
        <ele>20.2614</ele>
        <time>2020-10-01T16:28:20.389Z</time>
      </trkpt>
      <trkpt lat="50.37416" lon="3.39959">
        <ele>20.233768</ele>
        <time>2020-10-01T16:28:21.528Z</time>
      </trkpt>
      <trkpt lat="50.3742" lon="3.39985">
        <ele>20.179096</ele>
        <time>2020-10-01T16:28:23.991Z</time>
      </trkpt>
      <trkpt lat="50.37423" lon="3.4001">
        <ele>20.126112</ele>
        <time>2020-10-01T16:28:26.388Z</time>
      </trkpt>
      <trkpt lat="50.37423" lon="3.40015">
        <ele>20.115642</ele>
        <time>2020-10-01T16:28:26.907Z</time>
      </trkpt>
      <trkpt lat="50.37423" lon="3.40021">
        <ele>20.104858</ele>
        <time>2020-10-01T16:28:27.402Z</time>
      </trkpt>
      <trkpt lat="50.37424" lon="3.40026">
        <ele>20.094198</ele>
        <time>2020-10-01T16:28:27.909Z</time>
      </trkpt>
      <trkpt lat="50.37426" lon="3.4003">
        <ele>20.083739</ele>
        <time>2020-10-01T16:28:28.393Z</time>
      </trkpt>
      <trkpt lat="50.37432" lon="3.40035">
        <ele>20.062742</ele>
        <time>2020-10-01T16:28:29.288Z</time>
      </trkpt>
      <trkpt lat="50.37433" lon="3.40035">
        <ele>20.068072</ele>
        <time>2020-10-01T16:28:29.479Z</time>
      </trkpt>
      <trkpt lat="50.37435" lon="3.40035">
        <ele>20.075052</ele>
        <time>2020-10-01T16:28:29.712Z</time>
      </trkpt>
      <trkpt lat="50.37438" lon="3.40035">
        <ele>20.087468</ele>
        <time>2020-10-01T16:28:30.198Z</time>
      </trkpt>
      <trkpt lat="50.3744" lon="3.40033">
        <ele>20.099652</ele>
        <time>2020-10-01T16:28:30.691Z</time>
      </trkpt>
      <trkpt lat="50.37446" lon="3.4004">
        <ele>20.131934</ele>
        <time>2020-10-01T16:28:32.082Z</time>
      </trkpt>
      <trkpt lat="50.37457" lon="3.40047">
        <ele>20.176991</ele>
        <time>2020-10-01T16:28:33.794Z</time>
      </trkpt>
      <trkpt lat="50.37478" lon="3.40073">
        <ele>20.288291</ele>
        <time>2020-10-01T16:28:38.157Z</time>
      </trkpt>
      <trkpt lat="50.37543" lon="3.40136">
        <ele>20.598211</ele>
        <time>2020-10-01T16:28:50.929Z</time>
      </trkpt>
      <trkpt lat="50.37556" lon="3.40149">
        <ele>20.662049</ele>
        <time>2020-10-01T16:28:53.429Z</time>
      </trkpt>
      <trkpt lat="50.37567" lon="3.40159">
        <ele>20.713577</ele>
        <time>2020-10-01T16:28:55.769Z</time>
      </trkpt>
      <trkpt lat="50.37797" lon="3.40468">
        <ele>22.888214</ele>
        <time>2020-10-01T16:29:49.658Z</time>
      </trkpt>
      <trkpt lat="50.37818" lon="3.40501">
        <ele>23.109359</ele>
        <time>2020-10-01T16:29:55.076Z</time>
      </trkpt>
      <trkpt lat="50.37819" lon="3.40504">
        <ele>23.127651</ele>
        <time>2020-10-01T16:29:55.516Z</time>
      </trkpt>
      <trkpt lat="50.37877" lon="3.40603">
        <ele>23.656177</ele>
        <time>2020-10-01T16:30:10.963Z</time>
      </trkpt>
      <trkpt lat="50.37943" lon="3.40726">
        <ele>24.143308</ele>
        <time>2020-10-01T16:30:28.399Z</time>
      </trkpt>
      <trkpt lat="50.38039" lon="3.40842">
        <ele>24.220738</ele>
        <time>2020-10-01T16:30:46.160Z</time>
      </trkpt>
      <trkpt lat="50.38041" lon="3.4085">
        <ele>24.214066</ele>
        <time>2020-10-01T16:30:47.045Z</time>
      </trkpt>
      <trkpt lat="50.38039" lon="3.40861">
        <ele>24.206368</ele>
        <time>2020-10-01T16:30:47.878Z</time>
      </trkpt>
      <trkpt lat="50.37925" lon="3.41071">
        <ele>24.143099</ele>
        <time>2020-10-01T16:31:12.760Z</time>
      </trkpt>
      <trkpt lat="50.37911" lon="3.41076">
        <ele>24.148176</ele>
        <time>2020-10-01T16:31:14.976Z</time>
      </trkpt>
      <trkpt lat="50.37859" lon="3.41035">
        <ele>24.168408</ele>
        <time>2020-10-01T16:31:24.073Z</time>
      </trkpt>
      <trkpt lat="50.37843" lon="3.41029">
        <ele>24.187387</ele>
        <time>2020-10-01T16:31:26.884Z</time>
      </trkpt>
      <trkpt lat="50.37826" lon="3.41033">
        <ele>24.290138</ele>
        <time>2020-10-01T16:31:29.700Z</time>
      </trkpt>
      <trkpt lat="50.37762" lon="3.41123">
        <ele>24.802102</ele>
        <time>2020-10-01T16:31:44.315Z</time>
      </trkpt>
      <trkpt lat="50.37736" lon="3.41176">
        <ele>25.058814</ele>
        <time>2020-10-01T16:31:51.944Z</time>
      </trkpt>
      <trkpt lat="50.37696" lon="3.41281">
        <ele>25.658137</ele>
        <time>2020-10-01T16:32:05.958Z</time>
      </trkpt>
      <trkpt lat="50.37694" lon="3.41304">
        <ele>25.789533</ele>
        <time>2020-10-01T16:32:08.586Z</time>
      </trkpt>
      <trkpt lat="50.377" lon="3.41342">
        <ele>26.005546</ele>
        <time>2020-10-01T16:32:12.981Z</time>
      </trkpt>
      <trkpt lat="50.37704" lon="3.41375">
        <ele>26.197353</ele>
        <time>2020-10-01T16:32:16.850Z</time>
      </trkpt>
      <trkpt lat="50.37746" lon="3.41646">
        <ele>28.06578</ele>
        <time>2020-10-01T16:32:50.624Z</time>
      </trkpt>
      <trkpt lat="50.3777" lon="3.4177">
        <ele>29.080765</ele>
        <time>2020-10-01T16:33:07.482Z</time>
      </trkpt>
      <trkpt lat="50.37771" lon="3.41789">
        <ele>29.271495</ele>
        <time>2020-10-01T16:33:10.140Z</time>
      </trkpt>
      <trkpt lat="50.3778" lon="3.41928">
        <ele>30.74488</ele>
        <time>2020-10-01T16:33:28.978Z</time>
      </trkpt>
      <trkpt lat="50.37747" lon="3.42069">
        <ele>32.352788</ele>
        <time>2020-10-01T16:33:50.029Z</time>
      </trkpt>
      <trkpt lat="50.37748" lon="3.42073">
        <ele>32.397649</ele>
        <time>2020-10-01T16:33:50.733Z</time>
      </trkpt>
      <trkpt lat="50.37767" lon="3.42209">
        <ele>33.995331</ele>
        <time>2020-10-01T16:34:11.211Z</time>
      </trkpt>
      <trkpt lat="50.37788" lon="3.42365">
        <ele>35.455387</ele>
        <time>2020-10-01T16:34:32.645Z</time>
      </trkpt>
      <trkpt lat="50.37791" lon="3.42386">
        <ele>35.567103</ele>
        <time>2020-10-01T16:34:35.071Z</time>
      </trkpt>
      <trkpt lat="50.37799" lon="3.42451">
        <ele>35.92258</ele>
        <time>2020-10-01T16:34:43.113Z</time>
      </trkpt>
      <trkpt lat="50.37813" lon="3.42554">
        <ele>36.480466</ele>
        <time>2020-10-01T16:34:54.503Z</time>
      </trkpt>
      <trkpt lat="50.37821" lon="3.42619">
        <ele>36.702615</ele>
        <time>2020-10-01T16:35:00.674Z</time>
      </trkpt>
      <trkpt lat="50.37824" lon="3.42628">
        <ele>36.721281</ele>
        <time>2020-10-01T16:35:01.695Z</time>
      </trkpt>
      <trkpt lat="50.37882" lon="3.42822">
        <ele>37.103398</ele>
        <time>2020-10-01T16:35:23.208Z</time>
      </trkpt>
      <trkpt lat="50.37902" lon="3.42919">
        <ele>37.398333</ele>
        <time>2020-10-01T16:35:34.608Z</time>
      </trkpt>
      <trkpt lat="50.37915" lon="3.43014">
        <ele>37.703482</ele>
        <time>2020-10-01T16:35:44.959Z</time>
      </trkpt>
      <trkpt lat="50.37912" lon="3.43102">
        <ele>37.981434</ele>
        <time>2020-10-01T16:35:54.359Z</time>
      </trkpt>
      <trkpt lat="50.37976" lon="3.43098">
        <ele>38.304355</ele>
        <time>2020-10-01T16:36:05.067Z</time>
      </trkpt>
      <trkpt lat="50.38007" lon="3.43097">
        <ele>38.459554</ele>
        <time>2020-10-01T16:36:10.290Z</time>
      </trkpt>
      <trkpt lat="50.38014" lon="3.43097">
        <ele>38.495366</ele>
        <time>2020-10-01T16:36:11.519Z</time>
      </trkpt>
      <trkpt lat="50.38105" lon="3.4309">
        <ele>38.956598</ele>
        <time>2020-10-01T16:36:26.756Z</time>
      </trkpt>
      <trkpt lat="50.3812" lon="3.43089">
        <ele>39.041872</ele>
        <time>2020-10-01T16:36:29.425Z</time>
      </trkpt>
      <trkpt lat="50.3813" lon="3.43088">
        <ele>39.093926</ele>
        <time>2020-10-01T16:36:31.045Z</time>
      </trkpt>
      <trkpt lat="50.38166" lon="3.43086">
        <ele>39.29714</ele>
        <time>2020-10-01T16:36:37.518Z</time>
      </trkpt>
      <trkpt lat="50.38224" lon="3.43027">
        <ele>39.676041</ele>
        <time>2020-10-01T16:36:49.896Z</time>
      </trkpt>
      <trkpt lat="50.38323" lon="3.42924">
        <ele>39.442524</ele>
        <time>2020-10-01T16:37:08.383Z</time>
      </trkpt>
      <trkpt lat="50.38344" lon="3.42902">
        <ele>39.272461</ele>
        <time>2020-10-01T16:37:11.609Z</time>
      </trkpt>
      <trkpt lat="50.38359" lon="3.42887">
        <ele>39.154216</ele>
        <time>2020-10-01T16:37:13.624Z</time>
      </trkpt>
      <trkpt lat="50.3847" lon="3.4277">
        <ele>37.602139</ele>
        <time>2020-10-01T16:37:29.280Z</time>
      </trkpt>
      <trkpt lat="50.38476" lon="3.42764">
        <ele>37.491522</ele>
        <time>2020-10-01T16:37:29.959Z</time>
      </trkpt>
      <trkpt lat="50.3852" lon="3.42718">
        <ele>36.64329</ele>
        <time>2020-10-01T16:37:35.888Z</time>
      </trkpt>
      <trkpt lat="50.38559" lon="3.42677">
        <ele>35.896933</ele>
        <time>2020-10-01T16:37:41.222Z</time>
      </trkpt>
      <trkpt lat="50.38564" lon="3.42672">
        <ele>35.808241</ele>
        <time>2020-10-01T16:37:41.860Z</time>
      </trkpt>
      <trkpt lat="50.38575" lon="3.4266">
        <ele>35.664866</ele>
        <time>2020-10-01T16:37:43.416Z</time>
      </trkpt>
      <trkpt lat="50.38619" lon="3.42614">
        <ele>35.070755</ele>
        <time>2020-10-01T16:37:49.879Z</time>
      </trkpt>
      <trkpt lat="50.38749" lon="3.42477">
        <ele>33.527996</ele>
        <time>2020-10-01T16:38:09.226Z</time>
      </trkpt>
      <trkpt lat="50.38791" lon="3.42435">
        <ele>33.193926</ele>
        <time>2020-10-01T16:38:15.330Z</time>
      </trkpt>
      <trkpt lat="50.38802" lon="3.42425">
        <ele>33.10664</ele>
        <time>2020-10-01T16:38:17.019Z</time>
      </trkpt>
      <trkpt lat="50.38807" lon="3.4242">
        <ele>33.06881</ele>
        <time>2020-10-01T16:38:17.773Z</time>
      </trkpt>
      <trkpt lat="50.38813" lon="3.42413">
        <ele>33.017797</ele>
        <time>2020-10-01T16:38:18.796Z</time>
      </trkpt>
      <trkpt lat="50.38818" lon="3.42412">
        <ele>32.982365</ele>
        <time>2020-10-01T16:38:19.418Z</time>
      </trkpt>
      <trkpt lat="50.38829" lon="3.42419">
        <ele>32.904706</ele>
        <time>2020-10-01T16:38:20.919Z</time>
      </trkpt>
      <trkpt lat="50.38835" lon="3.42441">
        <ele>32.801443</ele>
        <time>2020-10-01T16:38:23.044Z</time>
      </trkpt>
      <trkpt lat="50.38839" lon="3.42473">
        <ele>32.661651</ele>
        <time>2020-10-01T16:38:25.751Z</time>
      </trkpt>
      <trkpt lat="50.38837" lon="3.42502">
        <ele>32.701503</ele>
        <time>2020-10-01T16:38:28.400Z</time>
      </trkpt>
      <trkpt lat="50.38837" lon="3.42521">
        <ele>32.770656</ele>
        <time>2020-10-01T16:38:29.958Z</time>
      </trkpt>
      <trkpt lat="50.38839" lon="3.42545">
        <ele>32.857812</ele>
        <time>2020-10-01T16:38:32.180Z</time>
      </trkpt>
      <trkpt lat="50.38893" lon="3.43025">
        <ele>35.192485</ele>
        <time>2020-10-01T16:39:29.851Z</time>
      </trkpt>
      <trkpt lat="50.38912" lon="3.43203">
        <ele>35.809266</ele>
        <time>2020-10-01T16:39:50.809Z</time>
      </trkpt>
      <trkpt lat="50.38922" lon="3.43284">
        <ele>36.079428</ele>
        <time>2020-10-01T16:39:59.132Z</time>
      </trkpt>
      <trkpt lat="50.38927" lon="3.43318">
        <ele>36.179358</ele>
        <time>2020-10-01T16:40:02.490Z</time>
      </trkpt>
      <trkpt lat="50.38929" lon="3.43324">
        <ele>36.170638</ele>
        <time>2020-10-01T16:40:03.001Z</time>
      </trkpt>
      <trkpt lat="50.38934" lon="3.43346">
        <ele>36.134729</ele>
        <time>2020-10-01T16:40:05.060Z</time>
      </trkpt>
      <trkpt lat="50.38942" lon="3.43442">
        <ele>35.991178</ele>
        <time>2020-10-01T16:40:13.441Z</time>
      </trkpt>
      <trkpt lat="50.38953" lon="3.43549">
        <ele>35.829527</ele>
        <time>2020-10-01T16:40:22.624Z</time>
      </trkpt>
      <trkpt lat="50.38966" lon="3.43669">
        <ele>35.888191</ele>
        <time>2020-10-01T16:40:34.675Z</time>
      </trkpt>
      <trkpt lat="50.39006" lon="3.44058">
        <ele>36.256834</ele>
        <time>2020-10-01T16:41:15.234Z</time>
      </trkpt>
      <trkpt lat="50.3902" lon="3.44273">
        <ele>35.845446</ele>
        <time>2020-10-01T16:41:33.503Z</time>
      </trkpt>
      <trkpt lat="50.39034" lon="3.44401">
        <ele>35.392529</ele>
        <time>2020-10-01T16:41:44.097Z</time>
      </trkpt>
      <trkpt lat="50.39063" lon="3.44492">
        <ele>35.315341</ele>
        <time>2020-10-01T16:41:52.781Z</time>
      </trkpt>
      <trkpt lat="50.39233" lon="3.44838">
        <ele>35.996994</ele>
        <time>2020-10-01T16:42:37.450Z</time>
      </trkpt>
      <trkpt lat="50.39253" lon="3.44865">
        <ele>36.107728</ele>
        <time>2020-10-01T16:42:42.316Z</time>
      </trkpt>
      <trkpt lat="50.39266" lon="3.44877">
        <ele>36.15344</ele>
        <time>2020-10-01T16:42:44.928Z</time>
      </trkpt>
      <trkpt lat="50.39276" lon="3.44883">
        <ele>36.171883</ele>
        <time>2020-10-01T16:42:47.220Z</time>
      </trkpt>
      <trkpt lat="50.39322" lon="3.44893">
        <ele>36.250088</ele>
        <time>2020-10-01T16:42:55.697Z</time>
      </trkpt>
      <trkpt lat="50.39495" lon="3.44876">
        <ele>35.563579</ele>
        <time>2020-10-01T16:43:20.373Z</time>
      </trkpt>
      <trkpt lat="50.39602" lon="3.4486">
        <ele>33.922392</ele>
        <time>2020-10-01T16:43:32.076Z</time>
      </trkpt>
      <trkpt lat="50.39618" lon="3.44862">
        <ele>33.685678</ele>
        <time>2020-10-01T16:43:33.604Z</time>
      </trkpt>
      <trkpt lat="50.39638" lon="3.44871">
        <ele>33.231855</ele>
        <time>2020-10-01T16:43:36.127Z</time>
      </trkpt>
      <trkpt lat="50.39645" lon="3.44881">
        <ele>33.032422</ele>
        <time>2020-10-01T16:43:37.051Z</time>
      </trkpt>
      <trkpt lat="50.39649" lon="3.44889">
        <ele>32.896783</ele>
        <time>2020-10-01T16:43:37.707Z</time>
      </trkpt>
      <trkpt lat="50.39693" lon="3.44996">
        <ele>31.171645</ele>
        <time>2020-10-01T16:43:46.494Z</time>
      </trkpt>
      <trkpt lat="50.39728" lon="3.45083">
        <ele>29.766595</ele>
        <time>2020-10-01T16:43:53.771Z</time>
      </trkpt>
      <trkpt lat="50.39744" lon="3.45125">
        <ele>29.152472</ele>
        <time>2020-10-01T16:43:57.367Z</time>
      </trkpt>
      <trkpt lat="50.3978" lon="3.45195">
        <ele>28.028761</ele>
        <time>2020-10-01T16:44:03.731Z</time>
      </trkpt>
      <trkpt lat="50.39869" lon="3.45287">
        <ele>26.074951</ele>
        <time>2020-10-01T16:44:15.286Z</time>
      </trkpt>
      <trkpt lat="50.39893" lon="3.45321">
        <ele>25.680165</ele>
        <time>2020-10-01T16:44:18.854Z</time>
      </trkpt>
      <trkpt lat="50.39907" lon="3.45359">
        <ele>25.332845</ele>
        <time>2020-10-01T16:44:22.084Z</time>
      </trkpt>
      <trkpt lat="50.39938" lon="3.45507">
        <ele>24.121292</ele>
        <time>2020-10-01T16:44:34.413Z</time>
      </trkpt>
      <trkpt lat="50.39966" lon="3.45586">
        <ele>24.149066</ele>
        <time>2020-10-01T16:44:42.969Z</time>
      </trkpt>
      <trkpt lat="50.40006" lon="3.45634">
        <ele>24.180064</ele>
        <time>2020-10-01T16:44:51.200Z</time>
      </trkpt>
      <trkpt lat="50.40157" lon="3.45763">
        <ele>24.087249</ele>
        <time>2020-10-01T16:45:17.901Z</time>
      </trkpt>
      <trkpt lat="50.40191" lon="3.45789">
        <ele>24.033634</ele>
        <time>2020-10-01T16:45:23.132Z</time>
      </trkpt>
      <trkpt lat="50.4022" lon="3.45808">
        <ele>23.99042</ele>
        <time>2020-10-01T16:45:27.276Z</time>
      </trkpt>
      <trkpt lat="50.40233" lon="3.45814">
        <ele>23.957714</ele>
        <time>2020-10-01T16:45:29.149Z</time>
      </trkpt>
      <trkpt lat="50.40256" lon="3.45824">
        <ele>23.797351</ele>
        <time>2020-10-01T16:45:32.188Z</time>
      </trkpt>
      <trkpt lat="50.40261" lon="3.45828">
        <ele>23.762829</ele>
        <time>2020-10-01T16:45:32.873Z</time>
      </trkpt>
      <trkpt lat="50.40264" lon="3.45833">
        <ele>23.731309</ele>
        <time>2020-10-01T16:45:33.501Z</time>
      </trkpt>
      <trkpt lat="50.40267" lon="3.4584">
        <ele>23.698612</ele>
        <time>2020-10-01T16:45:34.156Z</time>
      </trkpt>
      <trkpt lat="50.40268" lon="3.45856">
        <ele>23.627188</ele>
        <time>2020-10-01T16:45:35.466Z</time>
      </trkpt>
      <trkpt lat="50.40248" lon="3.45929">
        <ele>23.290977</ele>
        <time>2020-10-01T16:45:41.705Z</time>
      </trkpt>
      <trkpt lat="50.40244" lon="3.45941">
        <ele>23.235498</ele>
        <time>2020-10-01T16:45:42.815Z</time>
      </trkpt>
      <trkpt lat="50.40204" lon="3.46078">
        <ele>22.539382</ele>
        <time>2020-10-01T16:45:55.371Z</time>
      </trkpt>
      <trkpt lat="50.40202" lon="3.4609">
        <ele>22.472456</ele>
        <time>2020-10-01T16:45:56.431Z</time>
      </trkpt>
      <trkpt lat="50.402" lon="3.4611">
        <ele>22.358179</ele>
        <time>2020-10-01T16:45:58.241Z</time>
      </trkpt>
      <trkpt lat="50.40201" lon="3.46117">
        <ele>22.321098</ele>
        <time>2020-10-01T16:45:58.769Z</time>
      </trkpt>
      <trkpt lat="50.40211" lon="3.4611">
        <ele>22.224463</ele>
        <time>2020-10-01T16:46:00.212Z</time>
      </trkpt>
      <trkpt lat="50.40222" lon="3.46102">
        <ele>22.121082</ele>
        <time>2020-10-01T16:46:01.814Z</time>
      </trkpt>
      <trkpt lat="50.40268" lon="3.46071">
        <ele>21.691051</ele>
        <time>2020-10-01T16:46:07.994Z</time>
      </trkpt>
      <trkpt lat="50.40291" lon="3.46055">
        <ele>21.4716</ele>
        <time>2020-10-01T16:46:11.106Z</time>
      </trkpt>
      <trkpt lat="50.40333" lon="3.46026">
        <ele>21.037478</ele>
        <time>2020-10-01T16:46:16.528Z</time>
      </trkpt>
      <trkpt lat="50.40447" lon="3.45948">
        <ele>19.698589</ele>
        <time>2020-10-01T16:46:31.424Z</time>
      </trkpt>
      <trkpt lat="50.40456" lon="3.45941">
        <ele>19.585444</ele>
        <time>2020-10-01T16:46:32.600Z</time>
      </trkpt>
      <trkpt lat="50.40509" lon="3.45903">
        <ele>19.048709</ele>
        <time>2020-10-01T16:46:39.955Z</time>
      </trkpt>
      <trkpt lat="50.4053" lon="3.45888">
        <ele>18.87223</ele>
        <time>2020-10-01T16:46:42.777Z</time>
      </trkpt>
      <trkpt lat="50.40583" lon="3.45852">
        <ele>18.431573</ele>
        <time>2020-10-01T16:46:50.069Z</time>
      </trkpt>
      <trkpt lat="50.4062" lon="3.45827">
        <ele>18.121337</ele>
        <time>2020-10-01T16:46:55.400Z</time>
      </trkpt>
      <trkpt lat="50.40622" lon="3.45825">
        <ele>18.100414</ele>
        <time>2020-10-01T16:46:55.767Z</time>
      </trkpt>
      <trkpt lat="50.40661" lon="3.45799">
        <ele>17.824103</ele>
        <time>2020-10-01T16:47:01.140Z</time>
      </trkpt>
      <trkpt lat="50.40701" lon="3.45771">
        <ele>17.619034</ele>
        <time>2020-10-01T16:47:06.731Z</time>
      </trkpt>
      <trkpt lat="50.40742" lon="3.45743">
        <ele>17.411282</ele>
        <time>2020-10-01T16:47:12.608Z</time>
      </trkpt>
      <trkpt lat="50.40751" lon="3.45737">
        <ele>17.363407</ele>
        <time>2020-10-01T16:47:13.936Z</time>
      </trkpt>
      <trkpt lat="50.40779" lon="3.45718">
        <ele>17.224113</ele>
        <time>2020-10-01T16:47:17.954Z</time>
      </trkpt>
      <trkpt lat="50.40797" lon="3.45705">
        <ele>17.130859</ele>
        <time>2020-10-01T16:47:20.617Z</time>
      </trkpt>
      <trkpt lat="50.40804" lon="3.45699">
        <ele>17.092728</ele>
        <time>2020-10-01T16:47:21.845Z</time>
      </trkpt>
      <trkpt lat="50.40834" lon="3.45679">
        <ele>17.133892</ele>
        <time>2020-10-01T16:47:26.578Z</time>
      </trkpt>
      <trkpt lat="50.40851" lon="3.45667">
        <ele>17.192268</ele>
        <time>2020-10-01T16:47:29.451Z</time>
      </trkpt>
      <trkpt lat="50.40889" lon="3.4564">
        <ele>17.319084</ele>
        <time>2020-10-01T16:47:35.859Z</time>
      </trkpt>
      <trkpt lat="50.41087" lon="3.45502">
        <ele>18.160792</ele>
        <time>2020-10-01T16:48:13.343Z</time>
      </trkpt>
      <trkpt lat="50.41188" lon="3.45434">
        <ele>18.532779</ele>
        <time>2020-10-01T16:48:30.032Z</time>
      </trkpt>
      <trkpt lat="50.412" lon="3.45426">
        <ele>18.561152</ele>
        <time>2020-10-01T16:48:31.884Z</time>
      </trkpt>
      <trkpt lat="50.41203" lon="3.45424">
        <ele>18.567984</ele>
        <time>2020-10-01T16:48:32.306Z</time>
      </trkpt>
      <trkpt lat="50.4138" lon="3.45305">
        <ele>19.751267</ele>
        <time>2020-10-01T16:49:03.505Z</time>
      </trkpt>
      <trkpt lat="50.41403" lon="3.45338">
        <ele>20.114909</ele>
        <time>2020-10-01T16:49:10.181Z</time>
      </trkpt>
      <trkpt lat="50.41424" lon="3.45398">
        <ele>20.624601</ele>
        <time>2020-10-01T16:49:19.789Z</time>
      </trkpt>
      <trkpt lat="50.41431" lon="3.4542">
        <ele>20.806704</ele>
        <time>2020-10-01T16:49:23.544Z</time>
      </trkpt>
      <trkpt lat="50.41461" lon="3.45508">
        <ele>21.457495</ele>
        <time>2020-10-01T16:49:38.378Z</time>
      </trkpt>
      <trkpt lat="50.41741" lon="3.46344">
        <ele>27.210097</ele>
        <time>2020-10-01T16:51:28.535Z</time>
      </trkpt>
      <trkpt lat="50.41764" lon="3.46377">
        <ele>27.454609</ele>
        <time>2020-10-01T16:51:33.422Z</time>
      </trkpt>
      <trkpt lat="50.41941" lon="3.46537">
        <ele>29.767789</ele>
        <time>2020-10-01T16:52:12.025Z</time>
      </trkpt>
      <trkpt lat="50.4206" lon="3.46644">
        <ele>32.205907</ele>
        <time>2020-10-01T16:52:45.818Z</time>
      </trkpt>
      <trkpt lat="50.42084" lon="3.46667">
        <ele>32.720574</ele>
        <time>2020-10-01T16:52:52.791Z</time>
      </trkpt>
      <trkpt lat="50.42395" lon="3.46951">
        <ele>33.177264</ele>
        <time>2020-10-01T16:53:46.085Z</time>
      </trkpt>
      <trkpt lat="50.42405" lon="3.46957">
        <ele>33.161879</ele>
        <time>2020-10-01T16:53:47.456Z</time>
      </trkpt>
      <trkpt lat="50.4242" lon="3.46963">
        <ele>33.124255</ele>
        <time>2020-10-01T16:53:49.298Z</time>
      </trkpt>
      <trkpt lat="50.43113" lon="3.47182">
        <ele>30.198226</ele>
        <time>2020-10-01T16:55:23.873Z</time>
      </trkpt>
      <trkpt lat="50.43126" lon="3.47189">
        <ele>30.198945</ele>
        <time>2020-10-01T16:55:25.998Z</time>
      </trkpt>
      <trkpt lat="50.43136" lon="3.47204">
        <ele>30.251254</ele>
        <time>2020-10-01T16:55:28.765Z</time>
      </trkpt>
      <trkpt lat="50.43163" lon="3.47279">
        <ele>30.459854</ele>
        <time>2020-10-01T16:55:38.456Z</time>
      </trkpt>
      <trkpt lat="50.43184" lon="3.47597">
        <ele>30.412249</ele>
        <time>2020-10-01T16:56:11.528Z</time>
      </trkpt>
      <trkpt lat="50.43218" lon="3.47803">
        <ele>29.288048</ele>
        <time>2020-10-01T16:56:27.346Z</time>
      </trkpt>
      <trkpt lat="50.4324" lon="3.47903">
        <ele>28.347696</ele>
        <time>2020-10-01T16:56:34.921Z</time>
      </trkpt>
      <trkpt lat="50.43251" lon="3.48065">
        <ele>27.358181</ele>
        <time>2020-10-01T16:56:47.585Z</time>
      </trkpt>
      <trkpt lat="50.43255" lon="3.4808">
        <ele>27.317645</ele>
        <time>2020-10-01T16:56:48.879Z</time>
      </trkpt>
      <trkpt lat="50.43262" lon="3.48091">
        <ele>27.282558</ele>
        <time>2020-10-01T16:56:50.165Z</time>
      </trkpt>
      <trkpt lat="50.43267" lon="3.48097">
        <ele>27.258403</ele>
        <time>2020-10-01T16:56:50.985Z</time>
      </trkpt>
      <trkpt lat="50.43271" lon="3.481">
        <ele>27.238992</ele>
        <time>2020-10-01T16:56:51.744Z</time>
      </trkpt>
      <trkpt lat="50.43281" lon="3.48105">
        <ele>27.198041</ele>
        <time>2020-10-01T16:56:53.153Z</time>
      </trkpt>
      <trkpt lat="50.43301" lon="3.48107">
        <ele>27.121563</ele>
        <time>2020-10-01T16:56:55.920Z</time>
      </trkpt>
      <trkpt lat="50.43654" lon="3.48056">
        <ele>26.588838</ele>
        <time>2020-10-01T16:57:49.222Z</time>
      </trkpt>
      <trkpt lat="50.44124" lon="3.4799">
        <ele>23.289012</ele>
        <time>2020-10-01T16:58:48.224Z</time>
      </trkpt>
      <trkpt lat="50.44287" lon="3.47965">
        <ele>23.350765</ele>
        <time>2020-10-01T16:59:14.039Z</time>
      </trkpt>
      <trkpt lat="50.44293" lon="3.47958">
        <ele>23.379393</ele>
        <time>2020-10-01T16:59:15.429Z</time>
      </trkpt>
      <trkpt lat="50.44288" lon="3.4798">
        <ele>23.438678</ele>
        <time>2020-10-01T16:59:18.547Z</time>
      </trkpt>
      <trkpt lat="50.4428" lon="3.48033">
        <ele>23.574693</ele>
        <time>2020-10-01T16:59:25.681Z</time>
      </trkpt>
      <trkpt lat="50.44221" lon="3.48321">
        <ele>24.802186</ele>
        <time>2020-10-01T17:00:08.355Z</time>
      </trkpt>
      <trkpt lat="50.44219" lon="3.48334">
        <ele>24.880083</ele>
        <time>2020-10-01T17:00:10.061Z</time>
      </trkpt>
      <trkpt lat="50.44214" lon="3.48358">
        <ele>25.028854</ele>
        <time>2020-10-01T17:00:14.602Z</time>
      </trkpt>
      <trkpt lat="50.44139" lon="3.48739">
        <ele>28.268514</ele>
        <time>2020-10-01T17:01:20.603Z</time>
      </trkpt>
      <trkpt lat="50.44068" lon="3.491">
        <ele>30.910479</ele>
        <time>2020-10-01T17:02:21.908Z</time>
      </trkpt>
      <trkpt lat="50.44067" lon="3.49104">
        <ele>30.925584</ele>
        <time>2020-10-01T17:02:22.553Z</time>
      </trkpt>
      <trkpt lat="50.44012" lon="3.49376">
        <ele>31.384917</ele>
        <time>2020-10-01T17:03:00.004Z</time>
      </trkpt>
      <trkpt lat="50.44009" lon="3.49387">
        <ele>31.36769</ele>
        <time>2020-10-01T17:03:01.337Z</time>
      </trkpt>
      <trkpt lat="50.43983" lon="3.49526">
        <ele>31.154597</ele>
        <time>2020-10-01T17:03:18.683Z</time>
      </trkpt>
      <trkpt lat="50.43801" lon="3.50431">
        <ele>29.273423</ele>
        <time>2020-10-01T17:05:12.063Z</time>
      </trkpt>
      <trkpt lat="50.43794" lon="3.50441">
        <ele>29.364015</ele>
        <time>2020-10-01T17:05:14.310Z</time>
      </trkpt>
      <trkpt lat="50.43703" lon="3.50602">
        <ele>30.943712</ele>
        <time>2020-10-01T17:05:51.087Z</time>
      </trkpt>
      <trkpt lat="50.43687" lon="3.50623">
        <ele>31.360299</ele>
        <time>2020-10-01T17:05:57.286Z</time>
      </trkpt>
      <trkpt lat="50.43687" lon="3.50643">
        <ele>31.613739</ele>
        <time>2020-10-01T17:06:01.115Z</time>
      </trkpt>
      <trkpt lat="50.4393" lon="3.51255">
        <ele>40.280028</ele>
        <time>2020-10-01T17:08:10.400Z</time>
      </trkpt>
      <trkpt lat="50.442" lon="3.51942">
        <ele>44.625842</ele>
        <time>2020-10-01T17:10:08.135Z</time>
      </trkpt>
      <trkpt lat="50.44201" lon="3.5195">
        <ele>44.681719</ele>
        <time>2020-10-01T17:10:09.422Z</time>
      </trkpt>
      <trkpt lat="50.44202" lon="3.51953">
        <ele>44.70247</ele>
        <time>2020-10-01T17:10:10.600Z</time>
      </trkpt>
      <trkpt lat="50.44192" lon="3.51993">
        <ele>45.009945</ele>
        <time>2020-10-01T17:10:17.817Z</time>
      </trkpt>
      <trkpt lat="50.44116" lon="3.5209">
        <ele>46.813891</ele>
        <time>2020-10-01T17:10:46.653Z</time>
      </trkpt>
      <trkpt lat="50.44105" lon="3.52127">
        <ele>47.329957</ele>
        <time>2020-10-01T17:10:54.825Z</time>
      </trkpt>
      <trkpt lat="50.44124" lon="3.52302">
        <ele>48.83857</ele>
        <time>2020-10-01T17:11:25.022Z</time>
      </trkpt>
      <trkpt lat="50.44141" lon="3.52456">
        <ele>49.099761</ele>
        <time>2020-10-01T17:11:46.183Z</time>
      </trkpt>
      <trkpt lat="50.44147" lon="3.52494">
        <ele>49.165908</ele>
        <time>2020-10-01T17:11:50.774Z</time>
      </trkpt>
      <trkpt lat="50.44451" lon="3.52707">
        <ele>44.720078</ele>
        <time>2020-10-01T17:12:45.992Z</time>
      </trkpt>
      <trkpt lat="50.44554" lon="3.52786">
        <ele>42.379799</ele>
        <time>2020-10-01T17:13:04.563Z</time>
      </trkpt>
      <trkpt lat="50.44573" lon="3.52796">
        <ele>41.925464</ele>
        <time>2020-10-01T17:13:07.567Z</time>
      </trkpt>
      <trkpt lat="50.44581" lon="3.52801">
        <ele>41.712772</ele>
        <time>2020-10-01T17:13:09.071Z</time>
      </trkpt>
      <trkpt lat="50.44596" lon="3.528">
        <ele>41.377668</ele>
        <time>2020-10-01T17:13:11.394Z</time>
      </trkpt>
      <trkpt lat="50.44682" lon="3.52799">
        <ele>39.130693</ele>
        <time>2020-10-01T17:13:23.863Z</time>
      </trkpt>
      <trkpt lat="50.44743" lon="3.52787">
        <ele>37.141537</ele>
        <time>2020-10-01T17:13:32.772Z</time>
      </trkpt>
      <trkpt lat="50.44757" lon="3.5278">
        <ele>36.665641</ele>
        <time>2020-10-01T17:13:34.778Z</time>
      </trkpt>
      <trkpt lat="50.44784" lon="3.52768">
        <ele>35.753712</ele>
        <time>2020-10-01T17:13:38.840Z</time>
      </trkpt>
      <trkpt lat="50.44833" lon="3.52736">
        <ele>34.039629</ele>
        <time>2020-10-01T17:13:46.619Z</time>
      </trkpt>
      <trkpt lat="50.44875" lon="3.52706">
        <ele>32.905966</ele>
        <time>2020-10-01T17:13:53.583Z</time>
      </trkpt>
      <trkpt lat="50.4498" lon="3.52634">
        <ele>30.125271</ele>
        <time>2020-10-01T17:14:11.379Z</time>
      </trkpt>
      <trkpt lat="50.45016" lon="3.52608">
        <ele>28.999316</ele>
        <time>2020-10-01T17:14:17.813Z</time>
      </trkpt>
      <trkpt lat="50.45056" lon="3.52576">
        <ele>27.629838</ele>
        <time>2020-10-01T17:14:24.157Z</time>
      </trkpt>
      <trkpt lat="50.45073" lon="3.52554">
        <ele>26.935719</ele>
        <time>2020-10-01T17:14:27.523Z</time>
      </trkpt>
      <trkpt lat="50.45121" lon="3.52461">
        <ele>24.56281</ele>
        <time>2020-10-01T17:14:38.481Z</time>
      </trkpt>
      <trkpt lat="50.45125" lon="3.52455">
        <ele>24.401178</ele>
        <time>2020-10-01T17:14:39.144Z</time>
      </trkpt>
      <trkpt lat="50.45145" lon="3.52424">
        <ele>23.700456</ele>
        <time>2020-10-01T17:14:43.398Z</time>
      </trkpt>
      <trkpt lat="50.45198" lon="3.52351">
        <ele>22.157101</ele>
        <time>2020-10-01T17:14:53.805Z</time>
      </trkpt>
      <trkpt lat="50.45268" lon="3.52254">
        <ele>20.195847</ele>
        <time>2020-10-01T17:15:08.809Z</time>
      </trkpt>
      <trkpt lat="50.45298" lon="3.5221">
        <ele>20.444498</ele>
        <time>2020-10-01T17:15:17.221Z</time>
      </trkpt>
      <trkpt lat="50.45404" lon="3.52042">
        <ele>21.413858</ele>
        <time>2020-10-01T17:15:54.743Z</time>
      </trkpt>
      <trkpt lat="50.45429" lon="3.52011">
        <ele>21.741524</ele>
        <time>2020-10-01T17:16:02.784Z</time>
      </trkpt>
      <trkpt lat="50.4543" lon="3.52016">
        <ele>21.77834</ele>
        <time>2020-10-01T17:16:03.786Z</time>
      </trkpt>
      <trkpt lat="50.45456" lon="3.52014">
        <ele>22.043744</ele>
        <time>2020-10-01T17:16:10.221Z</time>
      </trkpt>
      <trkpt lat="50.45526" lon="3.52222">
        <ele>23.152112</ele>
        <time>2020-10-01T17:16:37.955Z</time>
      </trkpt>
      <trkpt lat="50.45541" lon="3.52255">
        <ele>23.169854</ele>
        <time>2020-10-01T17:16:42.015Z</time>
      </trkpt>
      <trkpt lat="50.45546" lon="3.52265">
        <ele>23.17555</ele>
        <time>2020-10-01T17:16:43.235Z</time>
      </trkpt>
      <trkpt lat="50.45618" lon="3.52349">
        <ele>23.236172</ele>
        <time>2020-10-01T17:16:55.574Z</time>
      </trkpt>
      <trkpt lat="50.45628" lon="3.52367">
        <ele>23.201647</ele>
        <time>2020-10-01T17:16:57.611Z</time>
      </trkpt>
      <trkpt lat="50.45648" lon="3.52404">
        <ele>22.928545</ele>
        <time>2020-10-01T17:17:01.626Z</time>
      </trkpt>
      <trkpt lat="50.45651" lon="3.52417">
        <ele>22.853371</ele>
        <time>2020-10-01T17:17:02.699Z</time>
      </trkpt>
      <trkpt lat="50.45655" lon="3.52443">
        <ele>22.702794</ele>
        <time>2020-10-01T17:17:04.876Z</time>
      </trkpt>
      <trkpt lat="50.45668" lon="3.52446">
        <ele>22.587952</ele>
        <time>2020-10-01T17:17:06.481Z</time>
      </trkpt>
      <trkpt lat="50.45677" lon="3.52459">
        <ele>22.480441</ele>
        <time>2020-10-01T17:17:08.009Z</time>
      </trkpt>
      <trkpt lat="50.45717" lon="3.52524">
        <ele>21.97093</ele>
        <time>2020-10-01T17:17:15.031Z</time>
      </trkpt>
      <trkpt lat="50.45747" lon="3.52559">
        <ele>21.63775</ele>
        <time>2020-10-01T17:17:19.451Z</time>
      </trkpt>
      <trkpt lat="50.45942" lon="3.52731">
        <ele>19.394437</ele>
        <time>2020-10-01T17:17:46.662Z</time>
      </trkpt>
      <trkpt lat="50.45992" lon="3.52777">
        <ele>18.995828</ele>
        <time>2020-10-01T17:17:53.971Z</time>
      </trkpt>
      <trkpt lat="50.46006" lon="3.52747">
        <ele>18.836938</ele>
        <time>2020-10-01T17:17:57.000Z</time>
      </trkpt>
      <trkpt lat="50.46036" lon="3.52652">
        <ele>18.48375</ele>
        <time>2020-10-01T17:18:06.137Z</time>
      </trkpt>
      <trkpt lat="50.46044" lon="3.52616">
        <ele>18.508741</ele>
        <time>2020-10-01T17:18:09.396Z</time>
      </trkpt>
      <trkpt lat="50.4609" lon="3.52315">
        <ele>18.834962</ele>
        <time>2020-10-01T17:18:40.756Z</time>
      </trkpt>
      <trkpt lat="50.46093" lon="3.52304">
        <ele>18.859385</ele>
        <time>2020-10-01T17:18:41.993Z</time>
      </trkpt>
      <trkpt lat="50.46103" lon="3.52267">
        <ele>18.9404</ele>
        <time>2020-10-01T17:18:46.319Z</time>
      </trkpt>
      <trkpt lat="50.46125" lon="3.52213">
        <ele>19.071441</ele>
        <time>2020-10-01T17:18:53.038Z</time>
      </trkpt>
      <trkpt lat="50.46142" lon="3.52179">
        <ele>19.158061</ele>
        <time>2020-10-01T17:18:57.601Z</time>
      </trkpt>
      <trkpt lat="50.46192" lon="3.52082">
        <ele>19.251349</ele>
        <time>2020-10-01T17:19:10.328Z</time>
      </trkpt>
      <trkpt lat="50.46227" lon="3.52002">
        <ele>19.27593</ele>
        <time>2020-10-01T17:19:19.468Z</time>
      </trkpt>
      <trkpt lat="50.46277" lon="3.51833">
        <ele>19.31195</ele>
        <time>2020-10-01T17:19:36.149Z</time>
      </trkpt>
      <trkpt lat="50.46343" lon="3.51672">
        <ele>19.336802</ele>
        <time>2020-10-01T17:19:54.813Z</time>
      </trkpt>
      <trkpt lat="50.46353" lon="3.51643">
        <ele>19.369249</ele>
        <time>2020-10-01T17:19:58.110Z</time>
      </trkpt>
      <trkpt lat="50.46355" lon="3.51626">
        <ele>19.386216</ele>
        <time>2020-10-01T17:19:59.856Z</time>
      </trkpt>
      <trkpt lat="50.46356" lon="3.51623">
        <ele>19.389657</ele>
        <time>2020-10-01T17:20:00.267Z</time>
      </trkpt>
      <trkpt lat="50.46413" lon="3.51434">
        <ele>19.596516</ele>
        <time>2020-10-01T17:20:21.114Z</time>
      </trkpt>
      <trkpt lat="50.46429" lon="3.51375">
        <ele>19.503811</ele>
        <time>2020-10-01T17:20:27.178Z</time>
      </trkpt>
      <trkpt lat="50.46476" lon="3.51249">
        <ele>19.12731</ele>
        <time>2020-10-01T17:20:39.918Z</time>
      </trkpt>
      <trkpt lat="50.46595" lon="3.51017">
        <ele>18.105015</ele>
        <time>2020-10-01T17:21:04.142Z</time>
      </trkpt>
      <trkpt lat="50.46712" lon="3.50883">
        <ele>17.671947</ele>
        <time>2020-10-01T17:21:23.641Z</time>
      </trkpt>
      <trkpt lat="50.46737" lon="3.50844">
        <ele>17.62178</ele>
        <time>2020-10-01T17:21:28.893Z</time>
      </trkpt>
      <trkpt lat="50.46753" lon="3.50815">
        <ele>17.587721</ele>
        <time>2020-10-01T17:21:32.664Z</time>
      </trkpt>
      <trkpt lat="50.46769" lon="3.50781">
        <ele>17.567666</ele>
        <time>2020-10-01T17:21:37.013Z</time>
      </trkpt>
      <trkpt lat="50.46789" lon="3.50752">
        <ele>17.75503</ele>
        <time>2020-10-01T17:21:41.574Z</time>
      </trkpt>
      <trkpt lat="50.46824" lon="3.5072">
        <ele>18.027513</ele>
        <time>2020-10-01T17:21:48.444Z</time>
      </trkpt>
      <trkpt lat="50.46907" lon="3.50628">
        <ele>18.721829</ele>
        <time>2020-10-01T17:22:07.065Z</time>
      </trkpt>
      <trkpt lat="50.46962" lon="3.50562">
        <ele>19.472015</ele>
        <time>2020-10-01T17:22:19.737Z</time>
      </trkpt>
      <trkpt lat="50.46968" lon="3.50542">
        <ele>19.633055</ele>
        <time>2020-10-01T17:22:22.479Z</time>
      </trkpt>
      <trkpt lat="50.46973" lon="3.50522">
        <ele>19.788063</ele>
        <time>2020-10-01T17:22:25.045Z</time>
      </trkpt>
      <trkpt lat="50.46981" lon="3.50507">
        <ele>19.933317</ele>
        <time>2020-10-01T17:22:27.418Z</time>
      </trkpt>
      <trkpt lat="50.47041" lon="3.50454">
        <ele>20.717434</ele>
        <time>2020-10-01T17:22:41.319Z</time>
      </trkpt>
      <trkpt lat="50.47068" lon="3.5042">
        <ele>21.164497</ele>
        <time>2020-10-01T17:22:48.435Z</time>
      </trkpt>
      <trkpt lat="50.47093" lon="3.50388">
        <ele>21.598593</ele>
        <time>2020-10-01T17:22:55.077Z</time>
      </trkpt>
      <trkpt lat="50.47106" lon="3.50372">
        <ele>21.817727</ele>
        <time>2020-10-01T17:22:58.650Z</time>
      </trkpt>
      <trkpt lat="50.47121" lon="3.50349">
        <ele>22.106409</ele>
        <time>2020-10-01T17:23:02.647Z</time>
      </trkpt>
      <trkpt lat="50.47125" lon="3.50344">
        <ele>22.17928</ele>
        <time>2020-10-01T17:23:04.174Z</time>
      </trkpt>
      <trkpt lat="50.47177" lon="3.50204">
        <ele>23.36746</ele>
        <time>2020-10-01T17:23:24.590Z</time>
      </trkpt>
      <trkpt lat="50.47226" lon="3.5011">
        <ele>23.724366</ele>
        <time>2020-10-01T17:23:38.853Z</time>
      </trkpt>
      <trkpt lat="50.47301" lon="3.49967">
        <ele>24.00567</ele>
        <time>2020-10-01T17:23:55.543Z</time>
      </trkpt>
      <trkpt lat="50.47311" lon="3.4995">
        <ele>23.971922</ele>
        <time>2020-10-01T17:23:57.544Z</time>
      </trkpt>
      <trkpt lat="50.47346" lon="3.49919">
        <ele>23.87986</ele>
        <time>2020-10-01T17:24:02.957Z</time>
      </trkpt>
      <trkpt lat="50.47367" lon="3.49905">
        <ele>23.82741</ele>
        <time>2020-10-01T17:24:05.984Z</time>
      </trkpt>
      <trkpt lat="50.47374" lon="3.49903">
        <ele>23.811636</ele>
        <time>2020-10-01T17:24:06.919Z</time>
      </trkpt>
      <trkpt lat="50.47386" lon="3.49892">
        <ele>23.778195</ele>
        <time>2020-10-01T17:24:08.881Z</time>
      </trkpt>
      <trkpt lat="50.47432" lon="3.49811">
        <ele>23.895555</ele>
        <time>2020-10-01T17:24:18.990Z</time>
      </trkpt>
      <trkpt lat="50.47467" lon="3.49758">
        <ele>24.298514</ele>
        <time>2020-10-01T17:24:26.831Z</time>
      </trkpt>
      <trkpt lat="50.47496" lon="3.49729">
        <ele>24.583752</ele>
        <time>2020-10-01T17:24:33.240Z</time>
      </trkpt>
      <trkpt lat="50.47513" lon="3.49711">
        <ele>24.748056</ele>
        <time>2020-10-01T17:24:37.295Z</time>
      </trkpt>
      <trkpt lat="50.47428" lon="3.49563">
        <ele>26.241357</ele>
        <time>2020-10-01T17:25:03.932Z</time>
      </trkpt>
      <trkpt lat="50.47402" lon="3.49433">
        <ele>27.467582</ele>
        <time>2020-10-01T17:25:22.083Z</time>
      </trkpt>
      <trkpt lat="50.47379" lon="3.49359">
        <ele>27.93974</ele>
        <time>2020-10-01T17:25:32.200Z</time>
      </trkpt>
      <trkpt lat="50.47357" lon="3.49311">
        <ele>28.182743</ele>
        <time>2020-10-01T17:25:39.065Z</time>
      </trkpt>
      <trkpt lat="50.47221" lon="3.49078">
        <ele>29.008038</ele>
        <time>2020-10-01T17:26:11.655Z</time>
      </trkpt>
      <trkpt lat="50.47137" lon="3.48949">
        <ele>29.07049</ele>
        <time>2020-10-01T17:26:28.925Z</time>
      </trkpt>
      <trkpt lat="50.47109" lon="3.48894">
        <ele>28.987531</ele>
        <time>2020-10-01T17:26:35.216Z</time>
      </trkpt>
      <trkpt lat="50.47106" lon="3.48875">
        <ele>28.964404</ele>
        <time>2020-10-01T17:26:36.963Z</time>
      </trkpt>
      <trkpt lat="50.47116" lon="3.48844">
        <ele>28.922642</ele>
        <time>2020-10-01T17:26:40.081Z</time>
      </trkpt>
      <trkpt lat="50.47148" lon="3.48805">
        <ele>28.847252</ele>
        <time>2020-10-01T17:26:45.669Z</time>
      </trkpt>
      <trkpt lat="50.47163" lon="3.48767">
        <ele>28.7934</ele>
        <time>2020-10-01T17:26:49.612Z</time>
      </trkpt>
      <trkpt lat="50.47158" lon="3.48746">
        <ele>28.749478</ele>
        <time>2020-10-01T17:26:51.637Z</time>
      </trkpt>
      <trkpt lat="50.47145" lon="3.48721">
        <ele>28.688142</ele>
        <time>2020-10-01T17:26:54.474Z</time>
      </trkpt>
      <trkpt lat="50.47068" lon="3.48628">
        <ele>28.39735</ele>
        <time>2020-10-01T17:27:08.074Z</time>
      </trkpt>
      <trkpt lat="50.47048" lon="3.48605">
        <ele>28.325286</ele>
        <time>2020-10-01T17:27:11.489Z</time>
      </trkpt>
      <trkpt lat="50.47025" lon="3.48575">
        <ele>28.197114</ele>
        <time>2020-10-01T17:27:15.809Z</time>
      </trkpt>
      <trkpt lat="50.46952" lon="3.48448">
        <ele>27.324987</ele>
        <time>2020-10-01T17:27:30.053Z</time>
      </trkpt>
      <trkpt lat="50.46935" lon="3.48395">
        <ele>27.021132</ele>
        <time>2020-10-01T17:27:34.690Z</time>
      </trkpt>
      <trkpt lat="50.46907" lon="3.48316">
        <ele>26.118963</ele>
        <time>2020-10-01T17:27:41.330Z</time>
      </trkpt>
      <trkpt lat="50.46898" lon="3.48284">
        <ele>25.631125</ele>
        <time>2020-10-01T17:27:43.770Z</time>
      </trkpt>
      <trkpt lat="50.46896" lon="3.4827">
        <ele>25.423408</ele>
        <time>2020-10-01T17:27:44.814Z</time>
      </trkpt>
      <trkpt lat="50.46895" lon="3.48256">
        <ele>25.225467</ele>
        <time>2020-10-01T17:27:45.810Z</time>
      </trkpt>
      <trkpt lat="50.46896" lon="3.48242">
        <ele>25.033085</ele>
        <time>2020-10-01T17:27:46.746Z</time>
      </trkpt>
      <trkpt lat="50.46883" lon="3.48246">
        <ele>24.749876</ele>
        <time>2020-10-01T17:27:48.118Z</time>
      </trkpt>
      <trkpt lat="50.4688" lon="3.48246">
        <ele>24.690623</ele>
        <time>2020-10-01T17:27:48.415Z</time>
      </trkpt>
      <trkpt lat="50.46876" lon="3.48234">
        <ele>24.499716</ele>
        <time>2020-10-01T17:27:49.347Z</time>
      </trkpt>
      <trkpt lat="50.46769" lon="3.48067">
        <ele>21.071545</ele>
        <time>2020-10-01T17:28:05.083Z</time>
      </trkpt>
      <trkpt lat="50.46755" lon="3.48042">
        <ele>20.567885</ele>
        <time>2020-10-01T17:28:07.294Z</time>
      </trkpt>
      <trkpt lat="50.46721" lon="3.47945">
        <ele>18.907487</ele>
        <time>2020-10-01T17:28:14.929Z</time>
      </trkpt>
      <trkpt lat="50.46707" lon="3.47902">
        <ele>18.435017</ele>
        <time>2020-10-01T17:28:18.475Z</time>
      </trkpt>
      <trkpt lat="50.46703" lon="3.47893">
        <ele>18.362295</ele>
        <time>2020-10-01T17:28:19.266Z</time>
      </trkpt>
      <trkpt lat="50.46729" lon="3.47857">
        <ele>18.018187</ele>
        <time>2020-10-01T17:28:23.400Z</time>
      </trkpt>
      <trkpt lat="50.46784" lon="3.47766">
        <ele>17.228784</ele>
        <time>2020-10-01T17:28:33.365Z</time>
      </trkpt>
      <trkpt lat="50.46852" lon="3.47621">
        <ele>16.6754</ele>
        <time>2020-10-01T17:28:49.276Z</time>
      </trkpt>
      <trkpt lat="50.46892" lon="3.47496">
        <ele>16.478363</ele>
        <time>2020-10-01T17:29:01.983Z</time>
      </trkpt>
      <trkpt lat="50.469" lon="3.47464">
        <ele>16.439089</ele>
        <time>2020-10-01T17:29:05.132Z</time>
      </trkpt>
      <trkpt lat="50.46897" lon="3.47433">
        <ele>16.425672</ele>
        <time>2020-10-01T17:29:07.876Z</time>
      </trkpt>
      <trkpt lat="50.46868" lon="3.47366">
        <ele>16.390398</ele>
        <time>2020-10-01T17:29:15.409Z</time>
      </trkpt>
      <trkpt lat="50.46868" lon="3.47341">
        <ele>16.379775</ele>
        <time>2020-10-01T17:29:17.743Z</time>
      </trkpt>
      <trkpt lat="50.46869" lon="3.47337">
        <ele>16.377865</ele>
        <time>2020-10-01T17:29:18.080Z</time>
      </trkpt>
      <trkpt lat="50.46874" lon="3.47324">
        <ele>16.370994</ele>
        <time>2020-10-01T17:29:19.616Z</time>
      </trkpt>
      <trkpt lat="50.46912" lon="3.47288">
        <ele>16.341105</ele>
        <time>2020-10-01T17:29:26.197Z</time>
      </trkpt>
      <trkpt lat="50.46932" lon="3.47258">
        <ele>16.321997</ele>
        <time>2020-10-01T17:29:30.317Z</time>
      </trkpt>
      <trkpt lat="50.46955" lon="3.4722">
        <ele>16.312401</ele>
        <time>2020-10-01T17:29:35.372Z</time>
      </trkpt>
      <trkpt lat="50.46967" lon="3.47199">
        <ele>16.307799</ele>
        <time>2020-10-01T17:29:38.223Z</time>
      </trkpt>
      <trkpt lat="50.47005" lon="3.47114">
        <ele>16.29094</ele>
        <time>2020-10-01T17:29:47.874Z</time>
      </trkpt>
      <trkpt lat="50.47043" lon="3.47002">
        <ele>16.236033</ele>
        <time>2020-10-01T17:29:59.687Z</time>
      </trkpt>
      <trkpt lat="50.47063" lon="3.46934">
        <ele>16.122119</ele>
        <time>2020-10-01T17:30:06.440Z</time>
      </trkpt>
      <trkpt lat="50.47076" lon="3.46911">
        <ele>16.076721</ele>
        <time>2020-10-01T17:30:09.152Z</time>
      </trkpt>
      <trkpt lat="50.47022" lon="3.46798">
        <ele>15.862223</ele>
        <time>2020-10-01T17:30:21.356Z</time>
      </trkpt>
      <trkpt lat="50.46992" lon="3.4673">
        <ele>15.803007</ele>
        <time>2020-10-01T17:30:28.639Z</time>
      </trkpt>
      <trkpt lat="50.4699" lon="3.46702">
        <ele>15.785735</ele>
        <time>2020-10-01T17:30:31.418Z</time>
      </trkpt>
      <trkpt lat="50.46993" lon="3.46686">
        <ele>15.775865</ele>
        <time>2020-10-01T17:30:32.810Z</time>
      </trkpt>
      <trkpt lat="50.46999" lon="3.46654">
        <ele>15.755444</ele>
        <time>2020-10-01T17:30:36.131Z</time>
      </trkpt>
      <trkpt lat="50.47001" lon="3.46644">
        <ele>15.749118</ele>
        <time>2020-10-01T17:30:37.093Z</time>
      </trkpt>
      <trkpt lat="50.47002" lon="3.46641">
        <ele>15.747011</ele>
        <time>2020-10-01T17:30:37.386Z</time>
      </trkpt>
      <trkpt lat="50.47006" lon="3.4663">
        <ele>15.739415</ele>
        <time>2020-10-01T17:30:38.480Z</time>
      </trkpt>
      <trkpt lat="50.47026" lon="3.46579">
        <ele>15.703002</ele>
        <time>2020-10-01T17:30:44.177Z</time>
      </trkpt>
      <trkpt lat="50.4703" lon="3.46565">
        <ele>15.693644</ele>
        <time>2020-10-01T17:30:45.951Z</time>
      </trkpt>
      <trkpt lat="50.47039" lon="3.46496">
        <ele>15.72368</ele>
        <time>2020-10-01T17:30:52.360Z</time>
      </trkpt>
      <trkpt lat="50.47035" lon="3.46455">
        <ele>15.774445</ele>
        <time>2020-10-01T17:30:56.347Z</time>
      </trkpt>
      <trkpt lat="50.47023" lon="3.46407">
        <ele>15.837264</ele>
        <time>2020-10-01T17:31:01.207Z</time>
      </trkpt>
      <trkpt lat="50.47019" lon="3.46397">
        <ele>15.852859</ele>
        <time>2020-10-01T17:31:02.788Z</time>
      </trkpt>
      <trkpt lat="50.47015" lon="3.46388">
        <ele>15.86607</ele>
        <time>2020-10-01T17:31:03.608Z</time>
      </trkpt>
      <trkpt lat="50.46967" lon="3.46315">
        <ele>15.995516</ele>
        <time>2020-10-01T17:31:14.739Z</time>
      </trkpt>
      <trkpt lat="50.46965" lon="3.46304">
        <ele>16.009915</ele>
        <time>2020-10-01T17:31:15.645Z</time>
      </trkpt>
      <trkpt lat="50.46964" lon="3.46297">
        <ele>16.018678</ele>
        <time>2020-10-01T17:31:16.573Z</time>
      </trkpt>
      <trkpt lat="50.46976" lon="3.4622">
        <ele>16.208501</ele>
        <time>2020-10-01T17:31:24.772Z</time>
      </trkpt>
      <trkpt lat="50.46974" lon="3.46142">
        <ele>16.397524</ele>
        <time>2020-10-01T17:31:32.872Z</time>
      </trkpt>
      <trkpt lat="50.46985" lon="3.46041">
        <ele>16.649157</ele>
        <time>2020-10-01T17:31:43.989Z</time>
      </trkpt>
      <trkpt lat="50.46983" lon="3.45999">
        <ele>16.70992</ele>
        <time>2020-10-01T17:31:48.337Z</time>
      </trkpt>
      <trkpt lat="50.46982" lon="3.45984">
        <ele>16.706575</ele>
        <time>2020-10-01T17:31:49.946Z</time>
      </trkpt>
      <trkpt lat="50.46995" lon="3.45934">
        <ele>16.693997</ele>
        <time>2020-10-01T17:31:57.333Z</time>
      </trkpt>
      <trkpt lat="50.47048" lon="3.45841">
        <ele>16.665141</ele>
        <time>2020-10-01T17:32:13.337Z</time>
      </trkpt>
      <trkpt lat="50.47075" lon="3.45792">
        <ele>16.650131</ele>
        <time>2020-10-01T17:32:21.056Z</time>
      </trkpt>
      <trkpt lat="50.47121" lon="3.45727">
        <ele>16.422953</ele>
        <time>2020-10-01T17:32:32.489Z</time>
      </trkpt>
      <trkpt lat="50.47165" lon="3.4567">
        <ele>16.197777</ele>
        <time>2020-10-01T17:32:43.068Z</time>
      </trkpt>
      <trkpt lat="50.47185" lon="3.45665">
        <ele>16.11761</ele>
        <time>2020-10-01T17:32:45.834Z</time>
      </trkpt>
      <trkpt lat="50.47204" lon="3.45652">
        <ele>16.037228</ele>
        <time>2020-10-01T17:32:48.622Z</time>
      </trkpt>
      <trkpt lat="50.47217" lon="3.45642">
        <ele>15.980329</ele>
        <time>2020-10-01T17:32:50.639Z</time>
      </trkpt>
      <trkpt lat="50.47241" lon="3.45619">
        <ele>15.936351</ele>
        <time>2020-10-01T17:32:54.642Z</time>
      </trkpt>
      <trkpt lat="50.47308" lon="3.45573">
        <ele>15.929521</ele>
        <time>2020-10-01T17:33:05.267Z</time>
      </trkpt>
      <trkpt lat="50.47356" lon="3.4556">
        <ele>15.925072</ele>
        <time>2020-10-01T17:33:12.633Z</time>
      </trkpt>
      <trkpt lat="50.47361" lon="3.4556">
        <ele>15.924554</ele>
        <time>2020-10-01T17:33:13.769Z</time>
      </trkpt>
      <trkpt lat="50.47388" lon="3.45563">
        <ele>15.922044</ele>
        <time>2020-10-01T17:33:17.745Z</time>
      </trkpt>
      <trkpt lat="50.47438" lon="3.45589">
        <ele>16.024524</ele>
        <time>2020-10-01T17:33:25.889Z</time>
      </trkpt>
      <trkpt lat="50.47537" lon="3.45678">
        <ele>16.28823</ele>
        <time>2020-10-01T17:33:43.529Z</time>
      </trkpt>
      <trkpt lat="50.47596" lon="3.45744">
        <ele>16.601431</ele>
        <time>2020-10-01T17:33:55.818Z</time>
      </trkpt>
      <trkpt lat="50.47614" lon="3.45764">
        <ele>16.715436</ele>
        <time>2020-10-01T17:33:59.714Z</time>
      </trkpt>
      <trkpt lat="50.4763" lon="3.45775">
        <ele>16.804865</ele>
        <time>2020-10-01T17:34:02.538Z</time>
      </trkpt>
      <trkpt lat="50.47672" lon="3.45789">
        <ele>17.02538</ele>
        <time>2020-10-01T17:34:09.888Z</time>
      </trkpt>
      <trkpt lat="50.4769" lon="3.45794">
        <ele>17.118459</ele>
        <time>2020-10-01T17:34:13.079Z</time>
      </trkpt>
      <trkpt lat="50.47712" lon="3.45801">
        <ele>17.234344</ele>
        <time>2020-10-01T17:34:16.927Z</time>
      </trkpt>
      <trkpt lat="50.47716" lon="3.45803">
        <ele>17.259097</ele>
        <time>2020-10-01T17:34:17.823Z</time>
      </trkpt>
      <trkpt lat="50.47721" lon="3.45806">
        <ele>17.278974</ele>
        <time>2020-10-01T17:34:18.723Z</time>
      </trkpt>
      <trkpt lat="50.47792" lon="3.45868">
        <ele>17.506732</ele>
        <time>2020-10-01T17:34:32.105Z</time>
      </trkpt>
      <trkpt lat="50.47879" lon="3.45919">
        <ele>17.768012</ele>
        <time>2020-10-01T17:34:46.497Z</time>
      </trkpt>
      <trkpt lat="50.47946" lon="3.45926">
        <ele>17.629884</ele>
        <time>2020-10-01T17:34:56.317Z</time>
      </trkpt>
      <trkpt lat="50.47995" lon="3.45908">
        <ele>17.520669</ele>
        <time>2020-10-01T17:35:03.284Z</time>
      </trkpt>
      <trkpt lat="50.48012" lon="3.45901">
        <ele>17.481584</ele>
        <time>2020-10-01T17:35:05.793Z</time>
      </trkpt>
      <trkpt lat="50.48027" lon="3.45894">
        <ele>17.44757</ele>
        <time>2020-10-01T17:35:07.860Z</time>
      </trkpt>
      <trkpt lat="50.48099" lon="3.45884">
        <ele>17.099206</ele>
        <time>2020-10-01T17:35:17.511Z</time>
      </trkpt>
      <trkpt lat="50.48216" lon="3.45737">
        <ele>16.105289</ele>
        <time>2020-10-01T17:35:36.344Z</time>
      </trkpt>
      <trkpt lat="50.48222" lon="3.45732">
        <ele>16.078831</ele>
        <time>2020-10-01T17:35:37.222Z</time>
      </trkpt>
      <trkpt lat="50.48223" lon="3.4573">
        <ele>16.072398</ele>
        <time>2020-10-01T17:35:37.389Z</time>
      </trkpt>
      <trkpt lat="50.48311" lon="3.45641">
        <ele>15.679854</ele>
        <time>2020-10-01T17:35:51.729Z</time>
      </trkpt>
      <trkpt lat="50.48319" lon="3.45632">
        <ele>15.641225</ele>
        <time>2020-10-01T17:35:53.026Z</time>
      </trkpt>
      <trkpt lat="50.48328" lon="3.45623">
        <ele>15.603753</ele>
        <time>2020-10-01T17:35:54.510Z</time>
      </trkpt>
      <trkpt lat="50.4835" lon="3.456">
        <ele>15.503399</ele>
        <time>2020-10-01T17:35:58.148Z</time>
      </trkpt>
      <trkpt lat="50.48381" lon="3.45569">
        <ele>15.425984</ele>
        <time>2020-10-01T17:36:03.570Z</time>
      </trkpt>
      <trkpt lat="50.48429" lon="3.45544">
        <ele>15.347378</ele>
        <time>2020-10-01T17:36:11.154Z</time>
      </trkpt>
      <trkpt lat="50.48454" lon="3.45541">
        <ele>15.309316</ele>
        <time>2020-10-01T17:36:14.751Z</time>
      </trkpt>
      <trkpt lat="50.48566" lon="3.45542">
        <ele>15.106976</ele>
        <time>2020-10-01T17:36:30.401Z</time>
      </trkpt>
      <trkpt lat="50.48634" lon="3.45565">
        <ele>14.940608</ele>
        <time>2020-10-01T17:36:39.898Z</time>
      </trkpt>
      <trkpt lat="50.48644" lon="3.45569">
        <ele>14.914911</ele>
        <time>2020-10-01T17:36:41.282Z</time>
      </trkpt>
      <trkpt lat="50.4867" lon="3.45581">
        <ele>14.850659</ele>
        <time>2020-10-01T17:36:45.112Z</time>
      </trkpt>
      <trkpt lat="50.48702" lon="3.45586">
        <ele>14.773327</ele>
        <time>2020-10-01T17:36:49.645Z</time>
      </trkpt>
      <trkpt lat="50.48734" lon="3.45582">
        <ele>14.833077</ele>
        <time>2020-10-01T17:36:54.240Z</time>
      </trkpt>
      <trkpt lat="50.48767" lon="3.4557">
        <ele>14.929204</ele>
        <time>2020-10-01T17:36:59.483Z</time>
      </trkpt>
      <trkpt lat="50.48834" lon="3.45509">
        <ele>15.145469</ele>
        <time>2020-10-01T17:37:12.094Z</time>
      </trkpt>
      <trkpt lat="50.48846" lon="3.45495">
        <ele>15.186627</ele>
        <time>2020-10-01T17:37:14.617Z</time>
      </trkpt>
      <trkpt lat="50.48907" lon="3.45426">
        <ele>15.609322</ele>
        <time>2020-10-01T17:37:27.518Z</time>
      </trkpt>
      <trkpt lat="50.48955" lon="3.45371">
        <ele>16.044065</ele>
        <time>2020-10-01T17:37:38.196Z</time>
      </trkpt>
      <trkpt lat="50.48985" lon="3.45329">
        <ele>16.33388</ele>
        <time>2020-10-01T17:37:45.505Z</time>
      </trkpt>
      <trkpt lat="50.49" lon="3.45306">
        <ele>16.483986</ele>
        <time>2020-10-01T17:37:49.383Z</time>
      </trkpt>
      <trkpt lat="50.49012" lon="3.45284">
        <ele>16.615049</ele>
        <time>2020-10-01T17:37:52.577Z</time>
      </trkpt>
      <trkpt lat="50.49015" lon="3.45276">
        <ele>16.655325</ele>
        <time>2020-10-01T17:37:53.874Z</time>
      </trkpt>
      <trkpt lat="50.49149" lon="3.4508">
        <ele>17.833375</ele>
        <time>2020-10-01T17:38:26.256Z</time>
      </trkpt>
      <trkpt lat="50.49223" lon="3.4497">
        <ele>17.996843</ele>
        <time>2020-10-01T17:38:42.165Z</time>
      </trkpt>
      <trkpt lat="50.49229" lon="3.4496">
        <ele>18.010165</ele>
        <time>2020-10-01T17:38:43.373Z</time>
      </trkpt>
      <trkpt lat="50.49248" lon="3.44932">
        <ele>18.051697</ele>
        <time>2020-10-01T17:38:47.268Z</time>
      </trkpt>
      <trkpt lat="50.49283" lon="3.44878">
        <ele>18.059472</ele>
        <time>2020-10-01T17:38:54.291Z</time>
      </trkpt>
      <trkpt lat="50.49359" lon="3.44758">
        <ele>17.876352</ele>
        <time>2020-10-01T17:39:09.040Z</time>
      </trkpt>
      <trkpt lat="50.49366" lon="3.44748">
        <ele>17.861471</ele>
        <time>2020-10-01T17:39:10.314Z</time>
      </trkpt>
      <trkpt lat="50.49368" lon="3.44744">
        <ele>17.855887</ele>
        <time>2020-10-01T17:39:10.805Z</time>
      </trkpt>
      <trkpt lat="50.4942" lon="3.44663">
        <ele>17.876793</ele>
        <time>2020-10-01T17:39:22.197Z</time>
      </trkpt>
      <trkpt lat="50.49426" lon="3.44654">
        <ele>17.896776</ele>
        <time>2020-10-01T17:39:23.312Z</time>
      </trkpt>
      <trkpt lat="50.49477" lon="3.44573">
        <ele>18.071187</ele>
        <time>2020-10-01T17:39:35.173Z</time>
      </trkpt>
      <trkpt lat="50.49491" lon="3.44561">
        <ele>18.10951</ele>
        <time>2020-10-01T17:39:38.078Z</time>
      </trkpt>
      <trkpt lat="50.49544" lon="3.44521">
        <ele>18.175343</ele>
        <time>2020-10-01T17:39:47.162Z</time>
      </trkpt>
      <trkpt lat="50.49562" lon="3.44503">
        <ele>18.08144</ele>
        <time>2020-10-01T17:39:50.474Z</time>
      </trkpt>
      <trkpt lat="50.4959" lon="3.44475">
        <ele>17.938146</ele>
        <time>2020-10-01T17:39:55.143Z</time>
      </trkpt>
      <trkpt lat="50.49648" lon="3.44404">
        <ele>17.614749</ele>
        <time>2020-10-01T17:40:04.873Z</time>
      </trkpt>
      <trkpt lat="50.49663" lon="3.44393">
        <ele>17.54327</ele>
        <time>2020-10-01T17:40:06.904Z</time>
      </trkpt>
      <trkpt lat="50.49669" lon="3.44396">
        <ele>17.517068</ele>
        <time>2020-10-01T17:40:07.670Z</time>
      </trkpt>
      <trkpt lat="50.49672" lon="3.44401">
        <ele>17.497331</ele>
        <time>2020-10-01T17:40:08.239Z</time>
      </trkpt>
      <trkpt lat="50.49674" lon="3.44405">
        <ele>17.483327</ele>
        <time>2020-10-01T17:40:08.570Z</time>
      </trkpt>
      <trkpt lat="50.49687" lon="3.44433">
        <ele>17.327604</ele>
        <time>2020-10-01T17:40:11.329Z</time>
      </trkpt>
      <trkpt lat="50.49735" lon="3.44569">
        <ele>16.383683</ele>
        <time>2020-10-01T17:40:23.119Z</time>
      </trkpt>
      <trkpt lat="50.49754" lon="3.44626">
        <ele>15.993094</ele>
        <time>2020-10-01T17:40:28.179Z</time>
      </trkpt>
      <trkpt lat="50.49776" lon="3.4469">
        <ele>15.737538</ele>
        <time>2020-10-01T17:40:34.341Z</time>
      </trkpt>
      <trkpt lat="50.49798" lon="3.44759">
        <ele>15.77647</ele>
        <time>2020-10-01T17:40:41.116Z</time>
      </trkpt>
      <trkpt lat="50.49799" lon="3.44762">
        <ele>15.778084</ele>
        <time>2020-10-01T17:40:41.504Z</time>
      </trkpt>
      <trkpt lat="50.49844" lon="3.44889">
        <ele>15.850894</ele>
        <time>2020-10-01T17:40:55.954Z</time>
      </trkpt>
      <trkpt lat="50.49851" lon="3.44909">
        <ele>15.862791</ele>
        <time>2020-10-01T17:40:58.698Z</time>
      </trkpt>
      <trkpt lat="50.49853" lon="3.44914">
        <ele>15.867749</ele>
        <time>2020-10-01T17:40:59.325Z</time>
      </trkpt>
      <trkpt lat="50.49864" lon="3.44939">
        <ele>16.021303</ele>
        <time>2020-10-01T17:41:02.861Z</time>
      </trkpt>
      <trkpt lat="50.49867" lon="3.44946">
        <ele>16.063545</ele>
        <time>2020-10-01T17:41:03.887Z</time>
      </trkpt>
      <trkpt lat="50.49874" lon="3.44964">
        <ele>16.171059</ele>
        <time>2020-10-01T17:41:06.566Z</time>
      </trkpt>
      <trkpt lat="50.49935" lon="3.45106">
        <ele>17.034799</ele>
        <time>2020-10-01T17:41:27.299Z</time>
      </trkpt>
      <trkpt lat="50.49943" lon="3.45125">
        <ele>17.153442</ele>
        <time>2020-10-01T17:41:29.842Z</time>
      </trkpt>
      <trkpt lat="50.49958" lon="3.45159">
        <ele>17.30076</ele>
        <time>2020-10-01T17:41:33.963Z</time>
      </trkpt>
      <trkpt lat="50.49974" lon="3.45177">
        <ele>17.315665</ele>
        <time>2020-10-01T17:41:37.117Z</time>
      </trkpt>
      <trkpt lat="50.49999" lon="3.45188">
        <ele>17.334316</ele>
        <time>2020-10-01T17:41:40.759Z</time>
      </trkpt>
      <trkpt lat="50.50005" lon="3.45189">
        <ele>17.339053</ele>
        <time>2020-10-01T17:41:41.794Z</time>
      </trkpt>
      <trkpt lat="50.50044" lon="3.45199">
        <ele>17.368527</ele>
        <time>2020-10-01T17:41:47.950Z</time>
      </trkpt>
      <trkpt lat="50.50051" lon="3.45202">
        <ele>17.373754</ele>
        <time>2020-10-01T17:41:49.004Z</time>
      </trkpt>
      <trkpt lat="50.50052" lon="3.45203">
        <ele>17.37499</ele>
        <time>2020-10-01T17:41:49.259Z</time>
      </trkpt>
      <trkpt lat="50.50084" lon="3.45223">
        <ele>17.400728</ele>
        <time>2020-10-01T17:41:54.518Z</time>
      </trkpt>
      <trkpt lat="50.50092" lon="3.45227">
        <ele>17.407033</ele>
        <time>2020-10-01T17:41:55.732Z</time>
      </trkpt>
      <trkpt lat="50.5013" lon="3.45249">
        <ele>17.435702</ele>
        <time>2020-10-01T17:42:01.219Z</time>
      </trkpt>
      <trkpt lat="50.50142" lon="3.45258">
        <ele>17.444141</ele>
        <time>2020-10-01T17:42:03.110Z</time>
      </trkpt>
      <trkpt lat="50.50193" lon="3.45294">
        <ele>17.479985</ele>
        <time>2020-10-01T17:42:10.663Z</time>
      </trkpt>
      <trkpt lat="50.50229" lon="3.45322">
        <ele>17.505199</ele>
        <time>2020-10-01T17:42:16.385Z</time>
      </trkpt>
      <trkpt lat="50.5031" lon="3.45386">
        <ele>17.543344</ele>
        <time>2020-10-01T17:42:32.606Z</time>
      </trkpt>
      <trkpt lat="50.50341" lon="3.45413">
        <ele>17.543344</ele>
        <time>2020-10-01T17:42:38.419Z</time>
      </trkpt>
      <trkpt lat="50.50355" lon="3.45425">
        <ele>17.543344</ele>
        <time>2020-10-01T17:42:40.859Z</time>
      </trkpt>
      <trkpt lat="50.50407" lon="3.45459">
        <ele>17.543344</ele>
        <time>2020-10-01T17:42:49.631Z</time>
      </trkpt>
      <trkpt lat="50.50405" lon="3.45468">
        <ele>17.543344</ele>
        <time>2020-10-01T17:42:50.731Z</time>
      </trkpt>
    </trkseg>
  </trk>
</gpx>